Air Quality Table

TIMESTAMP NO2 SO2 PM10 PM2.5 CO TEMP HUM AIRPRES WS WD NO
2022-06-26 08:00 69.72 µg/m3 1.83 µg/m3 N/A N/A N/A 28.66 °C 52.97 % 1,012.61 mbar 1.56 m/s 200.09 Deg 49.14 µg/m3
2022-06-26 07:00 57.19 µg/m3 2 µg/m3 N/A N/A N/A 26.15 °C 55.14 % 1,012.31 mbar 0.96 m/s 201.33 Deg 32.12 µg/m3
2022-06-26 06:00 55.94 µg/m3 2.35 µg/m3 N/A N/A N/A 24.5 °C 67.45 % 1,011.79 mbar 1 m/s 206.77 Deg 43.44 µg/m3
2022-06-26 05:00 29.27 µg/m3 0.7 µg/m3 N/A N/A N/A 26.14 °C 73.7 % 1,011.39 mbar 0.52 m/s 150.12 Deg 1.7 µg/m3
2022-06-26 04:00 41.41 µg/m3 0.99 µg/m3 N/A N/A N/A 26.59 °C 62.2 % 1,011.13 mbar 0.57 m/s 155.93 Deg 1.79 µg/m3
2022-06-26 03:00 66.3 µg/m3 1.64 µg/m3 N/A N/A N/A 25.93 °C 54.23 % 1,010.99 mbar 2.35 m/s 206.67 Deg 12.13 µg/m3
2022-06-26 02:00 68.4 µg/m3 2.07 µg/m3 N/A N/A N/A 26.04 °C 46.01 % 1,011.24 mbar 1.39 m/s 199.46 Deg 50.07 µg/m3
2022-06-26 01:00 54.99 µg/m3 1.77 µg/m3 N/A N/A N/A 26.57 °C 53.25 % 1,011.50 mbar 0.8 m/s 103.27 Deg 29.61 µg/m3
2022-06-26 00:00 64.23 µg/m3 1.82 µg/m3 N/A N/A N/A 27.06 °C 58.34 % 1,011.76 mbar 0.68 m/s 256.53 Deg 32.27 µg/m3
2022-06-25 23:00 48.69 µg/m3 2 µg/m3 N/A N/A N/A 27.25 °C 66.52 % 1,012.09 mbar 0.57 m/s 136.15 Deg 19.93 µg/m3
2022-06-25 22:00 69.77 µg/m3 2.35 µg/m3 N/A N/A N/A 27.72 °C 65.67 % 1,012.15 mbar 0.6 m/s 78.54 Deg 23.96 µg/m3
2022-06-25 21:00 34.35 µg/m3 2.69 µg/m3 N/A N/A N/A 28.99 °C 50.25 % 1,012.01 mbar 0.65 m/s 71.71 Deg 19.99 µg/m3
2022-06-25 20:00 27.08 µg/m3 1.8 µg/m3 N/A N/A N/A 30.14 °C 28.06 % 1,011.60 mbar 1.98 m/s 206.53 Deg 3.49 µg/m3
2022-06-25 19:00 32.12 µg/m3 2.2 µg/m3 N/A N/A N/A 31.19 °C 29.01 % 1,011.51 mbar 2.46 m/s 194.55 Deg 7.93 µg/m3
2022-06-25 18:00 37.58 µg/m3 2.18 µg/m3 N/A N/A N/A 32.46 °C 27.42 % 1,011.50 mbar 2.24 m/s 185.39 Deg 11.05 µg/m3
2022-06-25 17:00 33.34 µg/m3 2.73 µg/m3 N/A N/A N/A 33.09 °C 25.85 % 1,011.58 mbar 2.39 m/s 181.98 Deg 14.84 µg/m3
2022-06-25 16:00 56.2 µg/m3 4.66 µg/m3 N/A N/A N/A 33.58 °C 27.54 % 1,011.99 mbar 2.08 m/s 189.7 Deg 19.27 µg/m3
2022-06-25 15:00 40.35 µg/m3 2.69 µg/m3 N/A N/A N/A 34.49 °C 22.23 % 1,012.20 mbar 1.14 m/s 231.09 Deg 15.37 µg/m3
2022-06-25 14:00 26.84 µg/m3 1.94 µg/m3 N/A N/A N/A 31.3 °C 39.12 % 1,012.55 mbar 0.93 m/s 211.93 Deg 10.07 µg/m3
2022-06-25 13:00 36.72 µg/m3 1.11 µg/m3 N/A N/A N/A 29.24 °C 67.39 % 1,012.94 mbar 0.82 m/s 201.71 Deg 15.1 µg/m3
2022-06-25 12:00 35.43 µg/m3 1.71 µg/m3 N/A N/A N/A 28.46 °C 68.56 % 1,013.23 mbar 0.96 m/s 172.21 Deg 15.16 µg/m3
2022-06-25 11:00 30.17 µg/m3 2 µg/m3 N/A N/A N/A 28.4 °C 61.68 % 1,013.30 mbar 1.15 m/s 171.52 Deg 9.1 µg/m3
2022-06-25 10:00 49.39 µg/m3 2.99 µg/m3 N/A N/A N/A 28.03 °C 55.8 % 1,012.85 mbar 1.11 m/s 126.52 Deg 25.69 µg/m3
2022-06-25 09:00 74.1 µg/m3 3.21 µg/m3 N/A N/A N/A 28.65 °C 45.38 % 1,012.62 mbar 0.82 m/s 36.04 Deg 66.27 µg/m3
2022-06-25 08:00 97.29 µg/m3 6.01 µg/m3 N/A N/A N/A 28.4 °C 33.36 % 1,012.40 mbar 0.41 m/s 130.52 Deg 170.54 µg/m3
2022-06-25 07:00 65.97 µg/m3 3.9 µg/m3 N/A N/A N/A 25.61 °C 43.15 % 1,012.11 mbar 1.04 m/s 193.73 Deg 114.55 µg/m3
2022-06-25 06:00 61.71 µg/m3 4.04 µg/m3 N/A N/A N/A 24.71 °C 46.67 % 1,011.69 mbar 1.42 m/s 193.64 Deg 126.02 µg/m3
2022-06-25 05:00 48.99 µg/m3 2.06 µg/m3 N/A N/A N/A 24.63 °C 48.14 % 1,011.39 mbar 2.03 m/s 209.63 Deg 41.15 µg/m3
2022-06-25 04:00 43.17 µg/m3 1.29 µg/m3 N/A N/A N/A 25.01 °C 52.4 % 1,011.23 mbar 1.88 m/s 204.38 Deg 21.9 µg/m3
2022-06-25 03:00 45.31 µg/m3 1.09 µg/m3 N/A N/A N/A 25.49 °C 55.49 % 1,011.33 mbar 1.48 m/s 207.84 Deg 11 µg/m3
2022-06-25 02:00 46.33 µg/m3 0.9 µg/m3 N/A N/A N/A 26.36 °C 53.08 % 1,011.46 mbar 1.21 m/s 203.5 Deg 10.91 µg/m3
2022-06-25 01:00 14.49 µg/m3 0.28 µg/m3 N/A N/A N/A 27.43 °C 51.42 % 1,011.74 mbar 1.08 m/s 308.52 Deg 0.2 µg/m3
2022-06-25 00:00 47.82 µg/m3 0.98 µg/m3 N/A N/A N/A 27.12 °C 60.95 % 1,011.81 mbar 0.71 m/s 191.49 Deg 22.96 µg/m3
2022-06-24 23:00 67.46 µg/m3 1.47 µg/m3 N/A N/A N/A 27.67 °C 57.25 % 1,011.79 mbar 0.93 m/s 179.32 Deg 53.85 µg/m3
2022-06-24 22:00 59.07 µg/m3 1.36 µg/m3 N/A N/A N/A 28.75 °C 46.34 % 1,011.71 mbar 1.04 m/s 215.78 Deg 25.87 µg/m3
2022-06-24 21:00 66.6 µg/m3 1.63 µg/m3 N/A N/A N/A 28.18 °C 56.57 % 1,011.35 mbar 1.07 m/s 228.62 Deg 61.02 µg/m3
2022-06-24 20:00 49.72 µg/m3 4.11 µg/m3 N/A N/A N/A 27.76 °C 63.68 % 1,011.10 mbar 0.63 m/s 231.11 Deg 37.34 µg/m3
2022-06-24 19:00 38.32 µg/m3 0.96 µg/m3 N/A N/A N/A 29.64 °C 54.7 % 1,010.79 mbar 0.71 m/s 232.38 Deg 12.04 µg/m3
2022-06-24 18:00 12.29 µg/m3 0.9 µg/m3 N/A N/A N/A 31.72 °C 41.41 % 1,010.88 mbar 0.72 m/s 198.78 Deg 1.3 µg/m3
2022-06-24 17:00 26.36 µg/m3 1.39 µg/m3 N/A N/A N/A 33.39 °C 33.46 % 1,010.89 mbar 0.82 m/s 247.34 Deg 5.74 µg/m3
2022-06-24 16:00 27.22 µg/m3 1.36 µg/m3 N/A N/A N/A 35.86 °C 14.49 % 1,011.27 mbar 1.65 m/s 270.13 Deg 6.53 µg/m3
2022-06-24 15:00 27.95 µg/m3 1.27 µg/m3 N/A N/A N/A 35.35 °C 20.88 % 1,011.71 mbar 0.86 m/s 232.94 Deg 8.22 µg/m3
2022-06-24 14:00 30.6 µg/m3 1.15 µg/m3 N/A N/A N/A 33.63 °C 29.1 % 1,011.99 mbar 0.97 m/s 16.26 Deg 10.36 µg/m3
2022-06-24 13:00 24.76 µg/m3 1.44 µg/m3 N/A N/A N/A 31.99 °C 39.03 % 1,012.16 mbar 1.25 m/s 254.17 Deg 7.43 µg/m3
2022-06-24 12:00 20.09 µg/m3 0.18 µg/m3 N/A N/A N/A 31.24 °C 44.82 % 1,012.33 mbar 0.86 m/s 220.24 Deg 5.17 µg/m3
2022-06-24 11:00 16.02 µg/m3 1.19 µg/m3 N/A N/A N/A 29.6 °C 47.91 % 1,012.38 mbar 2.4 m/s 343.12 Deg 3.93 µg/m3
2022-06-24 10:00 26.95 µg/m3 1.18 µg/m3 N/A N/A N/A 29.8 °C 46.14 % 1,012.28 mbar 1.37 m/s 262.03 Deg 7.23 µg/m3
2022-06-24 09:00 36.7 µg/m3 1.19 µg/m3 N/A N/A N/A 30.24 °C 44.64 % 1,012.07 mbar 0.72 m/s 100.29 Deg 9.16 µg/m3
2022-06-24 08:00 79.75 µg/m3 2.18 µg/m3 N/A N/A N/A 29.63 °C 32.04 % 1,011.79 mbar 0.74 m/s 201.18 Deg 37.47 µg/m3
2022-06-24 07:00 92.96 µg/m3 3.43 µg/m3 N/A N/A N/A 28.31 °C 22.63 % 1,011.41 mbar 1.4 m/s 209.43 Deg 52.74 µg/m3
2022-06-24 06:00 97.28 µg/m3 3.27 µg/m3 N/A N/A N/A 26.41 °C 27.6 % 1,011.16 mbar 1.69 m/s 198.41 Deg 65.66 µg/m3
2022-06-24 05:00 74.35 µg/m3 2.36 µg/m3 N/A N/A N/A 26.85 °C 27.82 % 1,011.07 mbar 1.9 m/s 206.93 Deg 26.04 µg/m3
2022-06-24 04:00 36.92 µg/m3 1.47 µg/m3 N/A N/A N/A 27.18 °C 26.64 % 1,011.10 mbar 2.82 m/s 205.96 Deg 5.28 µg/m3
2022-06-24 03:00 30.59 µg/m3 1.67 µg/m3 N/A N/A N/A 26.62 °C 29.48 % 1,011.49 mbar 2.85 m/s 200.53 Deg 1.1 µg/m3
2022-06-24 02:00 32.01 µg/m3 1.71 µg/m3 N/A N/A N/A 25.81 °C 36.55 % 1,011.99 mbar 3.38 m/s 196.9 Deg 0.76 µg/m3
2022-06-24 01:00 45.04 µg/m3 1.51 µg/m3 N/A N/A N/A 25.94 °C 46.92 % 1,012.50 mbar 2.49 m/s 206.8 Deg 4.28 µg/m3
2022-06-24 00:00 37.67 µg/m3 0.98 µg/m3 N/A N/A N/A 26.31 °C 54.6 % 1,012.85 mbar 2.05 m/s 207.68 Deg 1.9 µg/m3
2022-06-23 23:00 25.48 µg/m3 1.06 µg/m3 N/A N/A N/A 27.18 °C 54.82 % 1,013.19 mbar 1.41 m/s 246.58 Deg 1.71 µg/m3
2022-06-23 22:00 21.09 µg/m3 1.17 µg/m3 N/A N/A N/A 27.88 °C 49.56 % 1,013.12 mbar 0.82 m/s 250.52 Deg 3.01 µg/m3
2022-06-23 21:00 53.24 µg/m3 1.16 µg/m3 N/A N/A N/A 28.36 °C 48.08 % 1,012.68 mbar 0.69 m/s 172.54 Deg 8.76 µg/m3
2022-06-23 20:00 33.35 µg/m3 1.55 µg/m3 N/A N/A N/A 30.04 °C 31.5 % 1,011.97 mbar 2.19 m/s 201.98 Deg 5.62 µg/m3
2022-06-23 19:00 23.28 µg/m3 1.73 µg/m3 N/A N/A N/A 30.79 °C 29.41 % 1,011.78 mbar 4.05 m/s 216.68 Deg 17.21 µg/m3
2022-06-23 18:00 30.25 µg/m3 2.52 µg/m3 N/A N/A N/A 31.44 °C 29.75 % 1,011.67 mbar 3.51 m/s 220.13 Deg 14.62 µg/m3
2022-06-23 17:00 37.24 µg/m3 2.95 µg/m3 N/A N/A N/A 31.5 °C 31.3 % 1,012.10 mbar 4.27 m/s 239.29 Deg 28.17 µg/m3
2022-06-23 16:00 25.34 µg/m3 2.14 µg/m3 N/A N/A N/A 31.53 °C 30.67 % 1,012.52 mbar 4.53 m/s 264.51 Deg 10.99 µg/m3
2022-06-23 15:00 37.68 µg/m3 3.44 µg/m3 N/A N/A N/A 30.82 °C 34.56 % 1,012.69 mbar 5.18 m/s 242.93 Deg 47.75 µg/m3
2022-06-23 14:00 60.63 µg/m3 5.91 µg/m3 N/A N/A N/A 30.56 °C 36.58 % 1,012.99 mbar 5.3 m/s 242.51 Deg 64.69 µg/m3
2022-06-23 13:00 74.41 µg/m3 9.59 µg/m3 N/A N/A N/A 30.95 °C 32.95 % 1,013.00 mbar 5.17 m/s 228.48 Deg 105.79 µg/m3
2022-06-23 12:00 67.06 µg/m3 7.78 µg/m3 N/A N/A N/A 31.52 °C 24.97 % 1,013.05 mbar 5.04 m/s 239.8 Deg 66.45 µg/m3
2022-06-23 11:00 70.98 µg/m3 8.26 µg/m3 N/A N/A N/A 30.88 °C 30.42 % 1,012.99 mbar 4.24 m/s 219.53 Deg 108.23 µg/m3
2022-06-23 10:00 59.85 µg/m3 4.61 µg/m3 N/A N/A N/A 30.04 °C 36.16 % 1,013.08 mbar 3.46 m/s 245.06 Deg 61.96 µg/m3
2022-06-23 09:00 54.95 µg/m3 3.77 µg/m3 N/A N/A N/A 29.25 °C 38.11 % 1,013.09 mbar 3.27 m/s 237.78 Deg 46.86 µg/m3
2022-06-23 08:00 69.16 µg/m3 2.69 µg/m3 N/A N/A N/A 27.8 °C 43.83 % 1,012.87 mbar 2.53 m/s 231.38 Deg 51.04 µg/m3
2022-06-23 07:00 78.82 µg/m3 3.49 µg/m3 N/A N/A N/A 26 °C 43.69 % 1,012.44 mbar 2.01 m/s 206.9 Deg 26.33 µg/m3
2022-06-23 06:00 84.91 µg/m3 3.37 µg/m3 N/A N/A N/A 24.78 °C 45.26 % 1,012.14 mbar 2.32 m/s 204.29 Deg 41.44 µg/m3
2022-06-23 05:00 51.79 µg/m3 1.43 µg/m3 N/A N/A N/A 24.56 °C 46.18 % 1,011.73 mbar 1.93 m/s 201.31 Deg 4.5 µg/m3
2022-06-23 04:00 41.9 µg/m3 1.67 µg/m3 N/A N/A N/A 24.41 °C 45.04 % 1,011.22 mbar 2.43 m/s 199.85 Deg 4.43 µg/m3
2022-06-23 03:00 38.67 µg/m3 1.77 µg/m3 N/A N/A N/A 24.69 °C 50.1 % 1,011.35 mbar 2.04 m/s 206.97 Deg 4.66 µg/m3
2022-06-23 02:00 63.29 µg/m3 1.31 µg/m3 N/A N/A N/A 25.19 °C 49.09 % 1,011.52 mbar 1.46 m/s 203.6 Deg 14.76 µg/m3
2022-06-23 01:00 48.99 µg/m3 1.23 µg/m3 N/A N/A N/A 25.77 °C 45.45 % 1,011.79 mbar 1.07 m/s 193.63 Deg 7.08 µg/m3
2022-06-23 00:00 51.17 µg/m3 0.95 µg/m3 N/A N/A N/A 26.37 °C 41.05 % 1,012.15 mbar 1.55 m/s 202.8 Deg 2.02 µg/m3
2022-06-22 23:00 48.35 µg/m3 0.93 µg/m3 N/A N/A N/A 26.52 °C 48.95 % 1,012.44 mbar 2.39 m/s 222.07 Deg 12.2 µg/m3
2022-06-22 22:00 32.05 µg/m3 0.39 µg/m3 N/A N/A N/A 26.84 °C 46.47 % 1,012.44 mbar 2.61 m/s 220.89 Deg 1.28 µg/m3
2022-06-22 21:00 34.04 µg/m3 0.42 µg/m3 N/A N/A N/A 27 °C 50.06 % 1,012.08 mbar 2.04 m/s 219.56 Deg 5.62 µg/m3
2022-06-22 20:00 23.15 µg/m3 1.16 µg/m3 N/A N/A N/A 27.53 °C 45.57 % 1,011.83 mbar 3.1 m/s 244.29 Deg 1.39 µg/m3
2022-06-22 19:00 10.6 µg/m3 1.06 µg/m3 N/A N/A N/A 28.77 °C 36.36 % 1,011.71 mbar 4.3 m/s 264.88 Deg 2.63 µg/m3
2022-06-22 18:00 15.52 µg/m3 0.94 µg/m3 N/A N/A N/A 29.9 °C 33.26 % 1,011.63 mbar 3.88 m/s 254.42 Deg 2.19 µg/m3
2022-06-22 17:00 9.73 µg/m3 1.16 µg/m3 N/A N/A N/A 30.13 °C 31.55 % 1,011.83 mbar 3.65 m/s 257.47 Deg 2.25 µg/m3
2022-06-22 16:00 63.78 µg/m3 4.29 µg/m3 N/A N/A N/A 29.99 °C 34.23 % 1,012.45 mbar 4.1 m/s 244.46 Deg 123.89 µg/m3
2022-06-22 15:00 33.11 µg/m3 1.76 µg/m3 N/A N/A N/A 30.09 °C 36.17 % 1,012.47 mbar 3.88 m/s 255.39 Deg 38.42 µg/m3
2022-06-22 14:00 37.83 µg/m3 1.9 µg/m3 N/A N/A N/A 29.71 °C 38.31 % 1,012.27 mbar 4.27 m/s 221.59 Deg 33.47 µg/m3
2022-06-22 13:00 16.23 µg/m3 1.04 µg/m3 N/A N/A N/A 28.95 °C 44.5 % 1,012.39 mbar 5.19 m/s 213.73 Deg 15.55 µg/m3
2022-06-22 12:00 21.64 µg/m3 0.93 µg/m3 N/A N/A N/A 29.26 °C 39.07 % 1,012.61 mbar 5.83 m/s 228.68 Deg 22.89 µg/m3
2022-06-22 11:00 45.3 µg/m3 1.35 µg/m3 N/A N/A N/A 29.35 °C 37.68 % 1,012.74 mbar 4.52 m/s 220.45 Deg 40.98 µg/m3
2022-06-22 10:00 27.92 µg/m3 1.6 µg/m3 N/A N/A N/A 29.07 °C 35.84 % 1,012.64 mbar 3.54 m/s 271.17 Deg 15.05 µg/m3
2022-06-22 09:00 62.01 µg/m3 3.65 µg/m3 N/A N/A N/A 28 °C 41.74 % 1,012.46 mbar 3.89 m/s 235.33 Deg 132.59 µg/m3
2022-06-22 08:00 56.35 µg/m3 0.42 µg/m3 N/A N/A N/A 26.31 °C 57.54 % 1,012.26 mbar 0.63 m/s 166.41 Deg 23.13 µg/m3
2022-06-22 07:00 67.35 µg/m3 1.24 µg/m3 N/A N/A N/A 24.98 °C 60.21 % 1,011.67 mbar 0.26 m/s 251.03 Deg 22.33 µg/m3
2022-06-22 06:00 64.9 µg/m3 -0.9 µg/m3 N/A N/A N/A 23.76 °C 63.18 % 1,011.36 mbar 1.42 m/s 197.53 Deg 24.35 µg/m3
2022-06-22 05:00 43.56 µg/m3 -0.5 µg/m3 N/A N/A N/A 23.39 °C 66.7 % 1,011.22 mbar 1.59 m/s 201.43 Deg 4.18 µg/m3
2022-06-22 04:00 30.53 µg/m3 0.1 µg/m3 N/A N/A N/A 23.44 °C 76.27 % 1,011.23 mbar 2.24 m/s 206.63 Deg 4.12 µg/m3
2022-06-22 03:00 26.83 µg/m3 0.57 µg/m3 N/A N/A N/A 24.11 °C 78.96 % 1,011.65 mbar 1.68 m/s 198.82 Deg 2.28 µg/m3
2022-06-22 02:00 7.13 µg/m3 0.64 µg/m3 N/A N/A N/A 24.47 °C 76.65 % 1,011.97 mbar 1.82 m/s 245.86 Deg 1.5 µg/m3
2022-06-22 01:00 15.96 µg/m3 0.4 µg/m3 N/A N/A N/A 24.4 °C 76.06 % 1,012.37 mbar 1.41 m/s 203 Deg 0.27 µg/m3
2022-06-22 00:00 9.98 µg/m3 0.29 µg/m3 N/A N/A N/A 24.68 °C 74.66 % 1,012.81 mbar 1.95 m/s 202.49 Deg 0.04 µg/m3
2022-06-21 23:00 18.12 µg/m3 0.6 µg/m3 N/A N/A N/A 24.89 °C 72.46 % 1,013.06 mbar 2.09 m/s 197.17 Deg 1 µg/m3
2022-06-21 22:00 31.99 µg/m3 0.83 µg/m3 N/A N/A N/A 25.24 °C 67.91 % 1,013.22 mbar 2.96 m/s 211.38 Deg 3.4 µg/m3
2022-06-21 21:00 17.76 µg/m3 0.85 µg/m3 N/A N/A N/A 25.57 °C 63.11 % 1,013.14 mbar 3.45 m/s 221.03 Deg 1.06 µg/m3
2022-06-21 20:00 11.99 µg/m3 0.99 µg/m3 N/A N/A N/A 25.97 °C 59.66 % 1,013.01 mbar 4.34 m/s 222.73 Deg 0.5 µg/m3
2022-06-21 19:00 13.13 µg/m3 0.67 µg/m3 N/A N/A N/A 27.28 °C 50.5 % 1,013.01 mbar 3.8 m/s 242.53 Deg 1.88 µg/m3
2022-06-21 18:00 17.46 µg/m3 1.09 µg/m3 N/A N/A N/A 28.2 °C 45.26 % 1,012.91 mbar 4.5 m/s 226.16 Deg 7.9 µg/m3
2022-06-21 17:00 28.81 µg/m3 1.26 µg/m3 N/A N/A N/A 28.7 °C 42.74 % 1,013.13 mbar 4.54 m/s 259.63 Deg 15.59 µg/m3
2022-06-21 16:00 51.43 µg/m3 1.96 µg/m3 N/A N/A N/A 29.54 °C 39.38 % 1,013.49 mbar 4.6 m/s 239.23 Deg 42.76 µg/m3
2022-06-21 15:00 41.6 µg/m3 1.7 µg/m3 N/A N/A N/A 29.85 °C 38.17 % 1,013.64 mbar 3.09 m/s 252.23 Deg 35.49 µg/m3
2022-06-21 14:00 49.63 µg/m3 1.66 µg/m3 N/A N/A N/A 29.22 °C 43.29 % 1,013.93 mbar 3.57 m/s 243.28 Deg 32.31 µg/m3
2022-06-21 13:00 23.15 µg/m3 0.57 µg/m3 N/A N/A N/A 29.45 °C 44.81 % 1,013.96 mbar 2.56 m/s 276.73 Deg 5.52 µg/m3
2022-06-21 12:00 14.65 µg/m3 0.09 µg/m3 N/A N/A N/A 28.45 °C 56.38 % 1,014.21 mbar 0.98 m/s 188.78 Deg 2.38 µg/m3
2022-06-21 11:00 18.64 µg/m3 0.17 µg/m3 N/A N/A N/A 27.31 °C 63.09 % 1,014.57 mbar 1.01 m/s 249.78 Deg 3.52 µg/m3
2022-06-21 10:00 23.73 µg/m3 0.1 µg/m3 N/A N/A N/A 26.7 °C 65.83 % 1,014.82 mbar 0.88 m/s 277.15 Deg 6.14 µg/m3
2022-06-21 09:00 37.46 µg/m3 0.16 µg/m3 N/A N/A N/A 26.7 °C 59.96 % 1,014.81 mbar 0.83 m/s 310.39 Deg 28.31 µg/m3
2022-06-21 08:00 35.26 µg/m3 0.22 µg/m3 N/A N/A N/A 25.76 °C 57.97 % 1,014.42 mbar 0.67 m/s 296.31 Deg 11.2 µg/m3
2022-06-21 07:00 94.82 µg/m3 0.68 µg/m3 N/A N/A N/A 24.11 °C 72.94 % 1,013.83 mbar 1.22 m/s 200.07 Deg 42.12 µg/m3
2022-06-21 06:00 90.11 µg/m3 1.17 µg/m3 N/A N/A N/A 23.06 °C 76.67 % 1,013.53 mbar 1.53 m/s 214.33 Deg 75.8 µg/m3
2022-06-21 05:00 58 µg/m3 -0.31 µg/m3 N/A N/A N/A 23.03 °C 76.38 % 1,013.36 mbar 1.37 m/s 203.11 Deg 4.73 µg/m3
2022-06-21 04:00 50.05 µg/m3 -0.65 µg/m3 N/A N/A N/A 23.22 °C 75.23 % 1,013.34 mbar 1.41 m/s 201.75 Deg 7.08 µg/m3
2022-06-21 03:00 29.67 µg/m3 0.67 µg/m3 N/A N/A N/A 23.57 °C 74.26 % 1,013.80 mbar 1.43 m/s 205.26 Deg 0.29 µg/m3
2022-06-21 02:00 52.58 µg/m3 -0.33 µg/m3 N/A N/A N/A 23.93 °C 73.13 % 1,013.89 mbar 1.32 m/s 231.05 Deg 5.8 µg/m3
2022-06-21 01:00 25.8 µg/m3 0.39 µg/m3 N/A N/A N/A 24.59 °C 73.09 % 1,014.16 mbar 1.01 m/s 271.41 Deg 0.83 µg/m3
2022-06-21 00:00 40.78 µg/m3 1.35 µg/m3 N/A N/A N/A 24.88 °C 72.65 % 1,014.51 mbar 0.77 m/s 286.68 Deg 2.09 µg/m3
2022-06-20 23:00 47.46 µg/m3 0.77 µg/m3 N/A N/A N/A 24.98 °C 70.48 % 1,014.81 mbar 0.79 m/s 306.73 Deg 5.02 µg/m3
2022-06-20 22:00 9.7 µg/m3 0.05 µg/m3 N/A N/A N/A 25.12 °C 69.43 % 1,014.73 mbar 0.61 m/s 325.84 Deg 0.39 µg/m3
2022-06-20 21:00 11.24 µg/m3 0.23 µg/m3 N/A N/A N/A 25.2 °C 71.66 % 1,014.36 mbar 0.73 m/s 336.83 Deg 0.19 µg/m3
2022-06-20 20:00 12.84 µg/m3 0.92 µg/m3 N/A N/A N/A 25.78 °C 64.84 % 1,013.88 mbar 1.31 m/s 332.42 Deg 1.07 µg/m3
2022-06-20 19:00 21.92 µg/m3 0.95 µg/m3 N/A N/A N/A 26.52 °C 64.41 % 1,013.68 mbar 2.25 m/s 215.65 Deg 2.63 µg/m3
2022-06-20 18:00 23.66 µg/m3 1.27 µg/m3 N/A N/A N/A 28.42 °C 55.16 % 1,013.59 mbar 1.11 m/s 237.08 Deg 4.09 µg/m3
2022-06-20 17:00 11.22 µg/m3 1.09 µg/m3 N/A N/A N/A 28.69 °C 54.64 % 1,013.46 mbar 0.83 m/s 264.39 Deg 1.45 µg/m3
2022-06-20 16:00 7.51 µg/m3 1.31 µg/m3 N/A N/A N/A 27.63 °C 61.49 % 1,013.64 mbar 0.84 m/s 253.95 Deg 1.24 µg/m3
2022-06-20 15:00 11.97 µg/m3 0.87 µg/m3 N/A N/A N/A 27.29 °C 63.39 % 1,013.89 mbar 0.86 m/s 207.9 Deg 1.34 µg/m3
2022-06-20 14:00 45.53 µg/m3 1.12 µg/m3 N/A N/A N/A 27.15 °C 64.02 % 1,014.08 mbar 0.77 m/s 229.8 Deg 32.77 µg/m3
2022-06-20 13:00 33.18 µg/m3 1.27 µg/m3 N/A N/A N/A 27.24 °C 54.59 % 1,014.16 mbar 0.7 m/s 304.25 Deg 19.73 µg/m3
2022-06-20 12:00 62.49 µg/m3 1.23 µg/m3 N/A N/A N/A 26.89 °C 52.96 % 1,014.32 mbar 0.81 m/s 248.59 Deg 82.32 µg/m3
2022-06-20 11:00 25.87 µg/m3 1.04 µg/m3 N/A N/A N/A 25.59 °C 62.31 % 1,014.45 mbar 0.92 m/s 244.51 Deg 5.38 µg/m3
2022-06-20 10:00 26.12 µg/m3 1.12 µg/m3 N/A N/A N/A 25.12 °C 74.27 % 1,014.36 mbar 0.62 m/s 268.66 Deg 2.71 µg/m3
2022-06-20 09:00 0 µg/m3 1.52 µg/m3 N/A N/A N/A 24.85 °C 77.98 % 1,014.15 mbar 0.53 m/s 278.21 Deg 0 µg/m3
2022-06-20 08:00 40.36 µg/m3 0.74 µg/m3 N/A N/A N/A 24.54 °C 76.75 % 1,013.87 mbar 0.62 m/s 213.19 Deg 6.46 µg/m3
2022-06-20 07:00 78.16 µg/m3 1.25 µg/m3 N/A N/A N/A 23.54 °C 81.24 % 1,013.29 mbar 0.62 m/s 236.07 Deg 73.85 µg/m3
2022-06-20 06:00 50.41 µg/m3 1.23 µg/m3 N/A N/A N/A 22.96 °C 85.07 % 1,012.79 mbar 0.41 m/s 273.47 Deg 13.68 µg/m3
2022-06-20 05:00 6.79 µg/m3 1.07 µg/m3 N/A N/A N/A 23.14 °C 84.72 % 1,012.47 mbar 0.19 m/s 276.73 Deg 0.14 µg/m3
2022-06-20 04:00 9.57 µg/m3 0.49 µg/m3 N/A N/A N/A 23.19 °C 84.41 % 1,012.32 mbar 0.25 m/s 287.83 Deg 0.58 µg/m3
2022-06-20 03:00 7.87 µg/m3 0.82 µg/m3 N/A N/A N/A 23.28 °C 83.31 % 1,012.49 mbar 0.52 m/s 71.88 Deg 0.1 µg/m3
2022-06-20 02:00 27.03 µg/m3 1.01 µg/m3 N/A N/A N/A 23.11 °C 84.89 % 1,012.69 mbar 0.58 m/s 233.45 Deg 0.23 µg/m3
2022-06-20 01:00 18.4 µg/m3 0.92 µg/m3 N/A N/A N/A 23.27 °C 89.11 % 1,013.01 mbar 0.54 m/s 168.06 Deg 0.28 µg/m3
2022-06-20 00:00 13.54 µg/m3 1.14 µg/m3 N/A N/A N/A 23.5 °C 87.45 % 1,013.23 mbar 0.31 m/s 94.69 Deg 0.35 µg/m3
2022-06-19 23:00 4.94 µg/m3 -5.12 µg/m3 N/A N/A N/A 23.74 °C 86.02 % 1,013.39 mbar 0.32 m/s 174 Deg 0.25 µg/m3
2022-06-19 22:00 6.42 µg/m3 1.55 µg/m3 N/A N/A N/A 24.12 °C 82.22 % 1,013.34 mbar 0.31 m/s 307.85 Deg 0.4 µg/m3
2022-06-19 21:00 18.79 µg/m3 1.64 µg/m3 N/A N/A N/A 24.75 °C 77.93 % 1,013.06 mbar 0.67 m/s 244.29 Deg 0.95 µg/m3
2022-06-19 20:00 18.66 µg/m3 1.51 µg/m3 N/A N/A N/A 25.36 °C 71.6 % 1,012.60 mbar 0.81 m/s 200.38 Deg 1.03 µg/m3
2022-06-19 19:00 13.63 µg/m3 1.65 µg/m3 N/A N/A N/A 26.64 °C 62.68 % 1,012.36 mbar 0.85 m/s 234.56 Deg 0.99 µg/m3
2022-06-19 18:00 9.98 µg/m3 1.91 µg/m3 N/A N/A N/A 27.35 °C 58.67 % 1,012.14 mbar 0.98 m/s 244.11 Deg 1.34 µg/m3
2022-06-19 17:00 9.22 µg/m3 1.83 µg/m3 N/A N/A N/A 27.87 °C 56.46 % 1,012.28 mbar 0.94 m/s 193.76 Deg 1.74 µg/m3
2022-06-19 16:00 6.11 µg/m3 1.8 µg/m3 N/A N/A N/A 27.44 °C 60.98 % 1,012.50 mbar 0.96 m/s 263.99 Deg 0.92 µg/m3
2022-06-19 15:00 4.52 µg/m3 1.66 µg/m3 N/A N/A N/A 26.79 °C 66.21 % 1,012.95 mbar 0.89 m/s 246.78 Deg 0.97 µg/m3
2022-06-19 14:00 5.03 µg/m3 1.22 µg/m3 N/A N/A N/A 26.14 °C 71.96 % 1,013.31 mbar 0.99 m/s 280.79 Deg 1.12 µg/m3
2022-06-19 13:00 3.52 µg/m3 0.72 µg/m3 N/A N/A N/A 25.75 °C 74.76 % 1,013.58 mbar 1.18 m/s 227.63 Deg 0.63 µg/m3
2022-06-19 12:00 15.36 µg/m3 0.84 µg/m3 N/A N/A N/A 25.58 °C 75.02 % 1,013.68 mbar 1.22 m/s 227.12 Deg 2.45 µg/m3
2022-06-19 11:00 10.11 µg/m3 0.81 µg/m3 N/A N/A N/A 25.58 °C 75.36 % 1,013.56 mbar 1.09 m/s 237.82 Deg 1.81 µg/m3
2022-06-19 10:00 7.86 µg/m3 0.68 µg/m3 N/A N/A N/A 25.4 °C 74.87 % 1,013.61 mbar 0.91 m/s 303.64 Deg 1.37 µg/m3
2022-06-19 09:00 8.62 µg/m3 1.02 µg/m3 N/A N/A N/A 24.78 °C 79.04 % 1,013.59 mbar 0.85 m/s 191.58 Deg 1.45 µg/m3
2022-06-19 08:00 4.11 µg/m3 -0.69 µg/m3 N/A N/A N/A 24.24 °C 81.13 % 1,013.42 mbar 0.81 m/s 317.66 Deg 0.88 µg/m3
2022-06-19 07:00 2.64 µg/m3 0.9 µg/m3 N/A N/A N/A 23.77 °C 82.72 % 1,013.04 mbar 0.82 m/s 84.34 Deg 0.14 µg/m3
2022-06-19 06:00 10.11 µg/m3 0.78 µg/m3 N/A N/A N/A 22.86 °C 88.58 % 1,012.74 mbar 0.65 m/s 238.42 Deg 0.52 µg/m3
2022-06-19 05:00 8.33 µg/m3 0.43 µg/m3 N/A N/A N/A 22.91 °C 91.09 % 1,012.38 mbar 0.57 m/s 249.35 Deg 0.26 µg/m3
2022-06-19 04:00 19.51 µg/m3 0.63 µg/m3 N/A N/A N/A 23.08 °C 90.08 % 1,012.38 mbar 0.42 m/s 292.88 Deg 2.93 µg/m3
2022-06-19 03:00 17.51 µg/m3 0.38 µg/m3 N/A N/A N/A 23.23 °C 88.9 % 1,012.52 mbar 0.22 m/s 157.23 Deg 0.38 µg/m3
2022-06-19 02:00 16.91 µg/m3 0.11 µg/m3 N/A N/A N/A 23.46 °C 86.47 % 1,012.65 mbar 0.47 m/s 207.98 Deg 0.17 µg/m3
2022-06-19 01:00 11.36 µg/m3 0.34 µg/m3 N/A N/A N/A 23.63 °C 84.92 % 1,012.96 mbar 0.57 m/s 248.12 Deg 0.16 µg/m3
2022-06-19 00:00 23.11 µg/m3 0.65 µg/m3 N/A N/A N/A 23.96 °C 81.56 % 1,013.02 mbar 0.62 m/s 206.63 Deg 1.46 µg/m3
2022-06-18 23:00 17.32 µg/m3 0.7 µg/m3 N/A N/A N/A 24.22 °C 78.81 % 1,013.04 mbar 0.5 m/s 280.71 Deg 0.5 µg/m3
2022-06-18 22:00 14.88 µg/m3 0.91 µg/m3 N/A N/A N/A 24.33 °C 78.66 % 1,012.96 mbar 0.57 m/s 320.73 Deg 4.01 µg/m3
2022-06-18 21:00 14.55 µg/m3 0.74 µg/m3 N/A N/A N/A 24.38 °C 79.24 % 1,012.71 mbar 0.83 m/s 212.85 Deg 0.83 µg/m3
2022-06-18 20:00 21.1 µg/m3 0.6 µg/m3 N/A N/A N/A 24.66 °C 80.21 % 1,012.04 mbar 1.04 m/s 246.71 Deg 1.35 µg/m3
2022-06-18 19:00 13.47 µg/m3 0.49 µg/m3 N/A N/A N/A 24.84 °C 82.2 % 1,012.34 mbar 1.05 m/s 254.92 Deg 1.32 µg/m3
2022-06-18 18:00 9.76 µg/m3 0.4 µg/m3 N/A N/A N/A 25.14 °C 83.33 % 1,012.26 mbar 1.34 m/s 164.65 Deg 0.96 µg/m3
2022-06-18 17:00 4.55 µg/m3 0.57 µg/m3 N/A N/A N/A 26.19 °C 77.1 % 1,012.39 mbar 1.11 m/s 153.41 Deg 1.23 µg/m3
2022-06-18 16:00 5.54 µg/m3 0.96 µg/m3 N/A N/A N/A 27.28 °C 69.46 % 1,012.17 mbar 0.84 m/s 265.5 Deg 1.18 µg/m3
2022-06-18 15:00 13.19 µg/m3 1.35 µg/m3 N/A N/A N/A 28.16 °C 61.61 % 1,012.26 mbar 1.01 m/s 232.65 Deg 2.83 µg/m3
2022-06-18 14:00 14.35 µg/m3 0.98 µg/m3 N/A N/A N/A 27.96 °C 58.88 % 1,012.16 mbar 0.99 m/s 255.67 Deg 2.28 µg/m3
2022-06-18 13:00 9.22 µg/m3 1.02 µg/m3 N/A N/A N/A 26.66 °C 73.23 % 1,012.55 mbar 0.91 m/s 226.94 Deg 2.02 µg/m3
2022-06-18 12:00 9.33 µg/m3 1.23 µg/m3 N/A N/A N/A 26.26 °C 73.11 % 1,012.89 mbar 0.97 m/s 252.51 Deg 1.93 µg/m3
2022-06-18 11:00 10.69 µg/m3 1.06 µg/m3 N/A N/A N/A 25.73 °C 75.71 % 1,012.96 mbar 1.29 m/s 190.76 Deg 2.45 µg/m3
2022-06-18 10:00 8.31 µg/m3 1.02 µg/m3 N/A N/A N/A 25.58 °C 71.83 % 1,013.04 mbar 1.08 m/s 284.83 Deg 1.29 µg/m3
2022-06-18 09:00 14.22 µg/m3 1.48 µg/m3 N/A N/A N/A 24.96 °C 81.24 % 1,013.08 mbar 0.6 m/s 204.32 Deg 6.86 µg/m3
2022-06-18 08:00 18.76 µg/m3 1.2 µg/m3 N/A N/A N/A 24.73 °C 82.23 % 1,013.07 mbar 0.49 m/s 278.75 Deg 4.66 µg/m3
2022-06-18 07:00 18.81 µg/m3 1.35 µg/m3 N/A N/A N/A 24.28 °C 82.53 % 1,012.89 mbar 1.01 m/s 241.29 Deg 2.72 µg/m3
2022-06-18 06:00 12.79 µg/m3 1.47 µg/m3 N/A N/A N/A 24.08 °C 80.12 % 1,012.52 mbar 1.23 m/s 283.15 Deg 2.58 µg/m3
2022-06-18 05:00 9.3 µg/m3 1.32 µg/m3 N/A N/A N/A 23.74 °C 81.25 % 1,012.31 mbar 0.91 m/s 261.71 Deg 0.27 µg/m3
2022-06-18 04:00 10.66 µg/m3 1.15 µg/m3 N/A N/A N/A 23.87 °C 82.42 % 1,012.32 mbar 3.17 m/s 198.49 Deg 0.88 µg/m3
2022-06-18 03:00 13.76 µg/m3 1.05 µg/m3 N/A N/A N/A 24.35 °C 74.18 % 1,012.75 mbar 3.68 m/s 208.35 Deg 0.31 µg/m3
2022-06-18 02:00 13.69 µg/m3 0.84 µg/m3 N/A N/A N/A 24.53 °C 69.43 % 1,013.34 mbar 3.33 m/s 219.49 Deg 0.33 µg/m3
2022-06-18 01:00 17.1 µg/m3 1.08 µg/m3 N/A N/A N/A 24.74 °C 68.01 % 1,013.68 mbar 2.68 m/s 203.02 Deg 0.64 µg/m3
2022-06-18 00:00 13.75 µg/m3 0.94 µg/m3 N/A N/A N/A 24.96 °C 70.08 % 1,013.90 mbar 2.94 m/s 220.58 Deg 0.2 µg/m3
2022-06-17 23:00 26.2 µg/m3 1.29 µg/m3 N/A N/A N/A 25.3 °C 69.92 % 1,014.40 mbar 2.47 m/s 248.8 Deg 4.05 µg/m3
2022-06-17 22:00 11.14 µg/m3 1.27 µg/m3 N/A N/A N/A 25.7 °C 61.93 % 1,014.59 mbar 3.09 m/s 239.55 Deg 0.83 µg/m3
2022-06-17 21:00 23.94 µg/m3 1.3 µg/m3 N/A N/A N/A 26.27 °C 53.25 % 1,014.41 mbar 2.72 m/s 232.45 Deg 3.65 µg/m3
2022-06-17 20:00 11.95 µg/m3 1.67 µg/m3 N/A N/A N/A 26.52 °C 55.76 % 1,014.08 mbar 3.63 m/s 247.39 Deg 0.9 µg/m3
2022-06-17 19:00 16.6 µg/m3 1.02 µg/m3 N/A N/A N/A 27.55 °C 49.83 % 1,014.11 mbar 3.32 m/s 263.58 Deg 2.19 µg/m3
2022-06-17 18:00 12.75 µg/m3 0.56 µg/m3 N/A N/A N/A 28.62 °C 42.29 % 1,014.03 mbar 3.06 m/s 262.42 Deg 2.17 µg/m3
2022-06-17 17:00 11.04 µg/m3 0.92 µg/m3 N/A N/A N/A 28.78 °C 40.62 % 1,013.99 mbar 3.79 m/s 245.73 Deg 2.32 µg/m3
2022-06-17 16:00 10 µg/m3 1.69 µg/m3 N/A N/A N/A 29.07 °C 37.35 % 1,014.37 mbar 5.02 m/s 240.22 Deg 3.65 µg/m3
2022-06-17 15:00 13.82 µg/m3 1.83 µg/m3 N/A N/A N/A 30.17 °C 34.26 % 1,014.76 mbar 2.2 m/s 244.8 Deg 3.16 µg/m3
2022-06-17 14:00 13.22 µg/m3 1.55 µg/m3 N/A N/A N/A 29.41 °C 48.09 % 1,014.95 mbar 2.02 m/s 330.94 Deg 2.36 µg/m3
2022-06-17 13:00 11.7 µg/m3 1.7 µg/m3 N/A N/A N/A 28.26 °C 56.69 % 1,015.30 mbar 1.66 m/s 336.54 Deg 2.69 µg/m3
2022-06-17 12:00 15.23 µg/m3 1.68 µg/m3 N/A N/A N/A 27.97 °C 49.62 % 1,015.62 mbar 1.71 m/s 317.43 Deg 2.27 µg/m3
2022-06-17 11:00 22.05 µg/m3 0.76 µg/m3 N/A N/A N/A 26.81 °C 58.31 % 1,015.73 mbar 1.09 m/s 147.43 Deg 4.99 µg/m3
2022-06-17 10:00 25.67 µg/m3 0.85 µg/m3 N/A N/A N/A 25.4 °C 69.32 % 1,015.53 mbar 1.23 m/s 211.53 Deg 5.76 µg/m3
2022-06-17 09:00 19.01 µg/m3 0.41 µg/m3 N/A N/A N/A 25.82 °C 73.7 % 1,015.56 mbar 0.63 m/s 215.55 Deg 3.9 µg/m3
2022-06-17 08:00 27.54 µg/m3 0.39 µg/m3 N/A N/A N/A 25.66 °C 61.78 % 1,015.62 mbar 0.83 m/s 306.73 Deg 5.96 µg/m3
2022-06-17 07:00 22.95 µg/m3 0.78 µg/m3 N/A N/A N/A 24.59 °C 66.34 % 1,015.42 mbar 0.93 m/s 285.07 Deg 4.59 µg/m3
2022-06-17 06:00 43.95 µg/m3 0.55 µg/m3 N/A N/A N/A 23.9 °C 61.25 % 1,015.14 mbar 0.71 m/s 256.17 Deg 5.99 µg/m3
2022-06-17 05:00 17.77 µg/m3 0.45 µg/m3 N/A N/A N/A 23.5 °C 72.05 % 1,014.90 mbar 0.97 m/s 269.89 Deg 1.89 µg/m3
2022-06-17 04:00 7.32 µg/m3 0.59 µg/m3 N/A N/A N/A 23.87 °C 70.17 % 1,014.75 mbar 0.98 m/s 283.68 Deg 0.32 µg/m3
2022-06-17 03:00 11.29 µg/m3 0.88 µg/m3 N/A N/A N/A 24.18 °C 63.64 % 1,014.82 mbar 0.88 m/s 257.99 Deg 0.29 µg/m3
2022-06-17 02:00 7.83 µg/m3 0.69 µg/m3 N/A N/A N/A 24.38 °C 61.47 % 1,015.20 mbar 1.09 m/s 254.73 Deg 0.37 µg/m3
2022-06-17 01:00 40.97 µg/m3 0.68 µg/m3 N/A N/A N/A 24.23 °C 57.46 % 1,015.68 mbar 1.47 m/s 214.71 Deg 2.23 µg/m3
2022-06-17 00:00 33.85 µg/m3 0.16 µg/m3 N/A N/A N/A 24.19 °C 68.27 % 1,015.92 mbar 0.8 m/s 201.96 Deg 2.93 µg/m3
2022-06-16 23:00 26.94 µg/m3 0.23 µg/m3 N/A N/A N/A 24.57 °C 69.26 % 1,015.96 mbar 1.85 m/s 204.13 Deg 1.77 µg/m3
2022-06-16 22:00 21.43 µg/m3 0.58 µg/m3 N/A N/A N/A 24.81 °C 65.49 % 1,016.04 mbar 1.58 m/s 264.65 Deg 2.8 µg/m3
2022-06-16 21:00 23.37 µg/m3 0.41 µg/m3 N/A N/A N/A 24.87 °C 73.52 % 1,015.68 mbar 1.06 m/s 305.23 Deg 4.03 µg/m3
2022-06-16 20:00 13.47 µg/m3 0.04 µg/m3 N/A N/A N/A 25.09 °C 72.14 % 1,015.43 mbar 0.96 m/s 318.42 Deg 0.81 µg/m3
2022-06-16 19:00 14.21 µg/m3 0.18 µg/m3 N/A N/A N/A 26.37 °C 56.8 % 1,015.17 mbar 1.7 m/s 339.78 Deg 2.33 µg/m3
2022-06-16 18:00 26.16 µg/m3 0.95 µg/m3 N/A N/A N/A 28.2 °C 38.82 % 1,014.93 mbar 2.68 m/s 264.78 Deg 10.76 µg/m3
2022-06-16 17:00 28.45 µg/m3 2.48 µg/m3 N/A N/A N/A 29.57 °C 33.68 % 1,014.73 mbar 2.67 m/s 246.56 Deg 12.96 µg/m3
2022-06-16 16:00 31.75 µg/m3 2.5 µg/m3 N/A N/A N/A 29.42 °C 31.36 % 1,014.93 mbar 2.61 m/s 213.8 Deg 19.37 µg/m3
2022-06-16 15:00 31.01 µg/m3 1.62 µg/m3 N/A N/A N/A 29 °C 34.94 % 1,015.32 mbar 3.15 m/s 259.46 Deg 20.98 µg/m3
2022-06-16 14:00 12.54 µg/m3 0.77 µg/m3 N/A N/A N/A 27.55 °C 60.16 % 1,015.47 mbar 1.71 m/s 332.33 Deg 2.95 µg/m3
2022-06-16 13:00 21.68 µg/m3 0.38 µg/m3 N/A N/A N/A 26.56 °C 68.8 % 1,015.61 mbar 2.01 m/s 335.93 Deg 11.39 µg/m3
2022-06-16 12:00 9.94 µg/m3 0.4 µg/m3 N/A N/A N/A 25.92 °C 70.93 % 1,015.71 mbar 2.26 m/s 341.05 Deg 2.21 µg/m3
2022-06-16 11:00 12.74 µg/m3 0.65 µg/m3 N/A N/A N/A 25.91 °C 66.93 % 1,015.73 mbar 1.29 m/s 278.44 Deg 2.68 µg/m3
2022-06-16 10:00 14.48 µg/m3 0.94 µg/m3 N/A N/A N/A 25.72 °C 67.56 % 1,015.56 mbar 1.04 m/s 310.12 Deg 4.09 µg/m3
2022-06-16 09:00 41.44 µg/m3 1.05 µg/m3 N/A N/A N/A 26.29 °C 58.42 % 1,015.61 mbar 1.21 m/s 271.86 Deg 9.55 µg/m3
2022-06-16 08:00 24.51 µg/m3 0.96 µg/m3 N/A N/A N/A 25.96 °C 48.02 % 1,015.51 mbar 1.45 m/s 292.77 Deg 4.19 µg/m3
2022-06-16 07:00 49.71 µg/m3 1.12 µg/m3 N/A N/A N/A 24.43 °C 56.17 % 1,015.20 mbar 1.7 m/s 260.56 Deg 25.15 µg/m3
2022-06-16 06:00 82.69 µg/m3 1.24 µg/m3 N/A N/A N/A 22.96 °C 60.73 % 1,015.07 mbar 1.31 m/s 200.04 Deg 55.84 µg/m3
2022-06-16 05:00 30.77 µg/m3 0.84 µg/m3 N/A N/A N/A 22.53 °C 67.92 % 1,014.85 mbar 2.21 m/s 205.57 Deg 1.96 µg/m3
2022-06-16 04:00 43.68 µg/m3 0.76 µg/m3 N/A N/A N/A 23.21 °C 72.23 % 1,014.77 mbar 1.36 m/s 249.13 Deg 10.78 µg/m3
2022-06-16 03:00 23.87 µg/m3 1 µg/m3 N/A N/A N/A 23.36 °C 75.67 % 1,014.81 mbar 1.05 m/s 266.23 Deg 6.35 µg/m3
2022-06-16 02:00 1.6 µg/m3 0.97 µg/m3 N/A N/A N/A 23.87 °C 79.94 % 1,015.01 mbar 0.28 m/s 22.62 Deg -0.04 µg/m3
2022-06-16 01:00 4.02 µg/m3 1.18 µg/m3 N/A N/A N/A 24.32 °C 71.41 % 1,015.39 mbar 0.31 m/s 152.24 Deg 0 µg/m3
2022-06-16 00:00 -0.51 µg/m3 0.86 µg/m3 N/A N/A N/A 24.04 °C 72.6 % 1,016.03 mbar 0.67 m/s 230.54 Deg 0.07 µg/m3
2022-06-15 23:00 24.79 µg/m3 1.34 µg/m3 N/A N/A N/A 24.48 °C 75.13 % 1,016.12 mbar 0.44 m/s 63.89 Deg 0.07 µg/m3
2022-06-15 22:00 15.27 µg/m3 1.58 µg/m3 N/A N/A N/A 24.72 °C 73.35 % 1,016.23 mbar 0.39 m/s 328.69 Deg 0.54 µg/m3
2022-06-15 21:00 14.83 µg/m3 1.11 µg/m3 N/A N/A N/A 25.06 °C 71.31 % 1,015.92 mbar 0.55 m/s 246.28 Deg 0.56 µg/m3
2022-06-15 20:00 10.45 µg/m3 0.67 µg/m3 N/A N/A N/A 25.79 °C 56.81 % 1,015.52 mbar 0.88 m/s 326.57 Deg 0.93 µg/m3
2022-06-15 19:00 19.17 µg/m3 0.99 µg/m3 N/A N/A N/A 26.82 °C 51.09 % 1,015.36 mbar 1.02 m/s 321.31 Deg 0.8 µg/m3
2022-06-15 18:00 16.23 µg/m3 1.34 µg/m3 N/A N/A N/A 26.95 °C 58.51 % 1,015.33 mbar 1.06 m/s 323.42 Deg 1.95 µg/m3
2022-06-15 17:00 23.78 µg/m3 1.37 µg/m3 N/A N/A N/A 27.26 °C 59.08 % 1,015.41 mbar 0.9 m/s 252.17 Deg 18.63 µg/m3
2022-06-15 16:00 15.78 µg/m3 0.46 µg/m3 N/A N/A N/A 27.37 °C 55.87 % 1,015.62 mbar 0.77 m/s 238.19 Deg 2.97 µg/m3
2022-06-15 15:00 13.89 µg/m3 0.52 µg/m3 N/A N/A N/A 27.05 °C 55.72 % 1,015.89 mbar 0.85 m/s 112.2 Deg 2.07 µg/m3
2022-06-15 14:00 14.96 µg/m3 -0.17 µg/m3 N/A N/A N/A 26.94 °C 56.42 % 1,016.29 mbar 0.73 m/s 168.96 Deg 3.16 µg/m3
2022-06-15 13:00 12.68 µg/m3 0.1 µg/m3 N/A N/A N/A 25.79 °C 64.11 % 1,016.52 mbar 1.14 m/s 209.8 Deg 2.3 µg/m3
2022-06-15 12:00 22.18 µg/m3 1.05 µg/m3 N/A N/A N/A 26.52 °C 58 % 1,016.51 mbar 1.13 m/s 202.3 Deg 5.01 µg/m3
2022-06-15 11:00 41.84 µg/m3 0.95 µg/m3 N/A N/A N/A 26.42 °C 60.29 % 1,016.55 mbar 1.08 m/s 209.35 Deg 13.62 µg/m3
2022-06-15 10:00 30.26 µg/m3 2.48 µg/m3 N/A N/A N/A 26.22 °C 60.72 % 1,016.16 mbar 0.9 m/s 233.68 Deg 6.78 µg/m3
2022-06-15 09:00 25.93 µg/m3 2.31 µg/m3 N/A N/A N/A 26.13 °C 63.3 % 1,015.72 mbar 0.67 m/s 267.74 Deg 5.41 µg/m3
2022-06-15 08:00 38.69 µg/m3 2.73 µg/m3 N/A N/A N/A 25.63 °C 64.15 % 1,015.51 mbar 0.57 m/s 180.91 Deg 8.05 µg/m3
2022-06-15 07:00 75.16 µg/m3 3.31 µg/m3 N/A N/A N/A 24.31 °C 60.75 % 1,015.22 mbar 0.78 m/s 264.92 Deg 47.56 µg/m3
2022-06-15 06:00 86.46 µg/m3 2.92 µg/m3 N/A N/A N/A 22.73 °C 59.23 % 1,014.89 mbar 0.98 m/s 193.29 Deg 46.41 µg/m3
2022-06-15 05:00 75.2 µg/m3 2.04 µg/m3 N/A N/A N/A 22.73 °C 58.68 % 1,014.59 mbar 1.4 m/s 207.38 Deg 24.39 µg/m3
2022-06-15 04:00 57.5 µg/m3 1.2 µg/m3 N/A N/A N/A 22.86 °C 62.5 % 1,014.29 mbar 1.64 m/s 205.19 Deg 4.88 µg/m3
2022-06-15 03:00 69.47 µg/m3 1.02 µg/m3 N/A N/A N/A 22.92 °C 67.77 % 1,014.26 mbar 1.39 m/s 205.28 Deg 4.55 µg/m3
2022-06-15 02:00 38.2 µg/m3 0.35 µg/m3 N/A N/A N/A 23.28 °C 76.57 % 1,014.41 mbar 1.44 m/s 211.51 Deg 0.1 µg/m3
2022-06-15 01:00 14.47 µg/m3 -5.24 µg/m3 N/A N/A N/A 23.89 °C 76.47 % 1,014.58 mbar 0.73 m/s 250.84 Deg 0.06 µg/m3
2022-06-15 00:00 5.76 µg/m3 0.83 µg/m3 N/A N/A N/A 23.99 °C 78.73 % 1,014.76 mbar 0.72 m/s 281.15 Deg 0.09 µg/m3
2022-06-14 23:00 12.51 µg/m3 1.14 µg/m3 N/A N/A N/A 24.11 °C 81.39 % 1,014.87 mbar 0.57 m/s 328.8 Deg 0.96 µg/m3
2022-06-14 22:00 15.8 µg/m3 1.31 µg/m3 N/A N/A N/A 24.53 °C 78.06 % 1,014.59 mbar 0.92 m/s 317.68 Deg 1.08 µg/m3
2022-06-14 21:00 10.66 µg/m3 1.63 µg/m3 N/A N/A N/A 24.96 °C 74.87 % 1,013.91 mbar 1.05 m/s 289.38 Deg 0.45 µg/m3
2022-06-14 20:00 22.78 µg/m3 2.52 µg/m3 N/A N/A N/A 25.94 °C 64.89 % 1,013.43 mbar 0.98 m/s 244.88 Deg 1.86 µg/m3
2022-06-14 19:00 30.08 µg/m3 2.09 µg/m3 N/A N/A N/A 26.93 °C 53.07 % 1,013.03 mbar 2.16 m/s 188.62 Deg 5.63 µg/m3
2022-06-14 18:00 33.77 µg/m3 2.43 µg/m3 N/A N/A N/A 28.76 °C 42.94 % 1,012.77 mbar 1.55 m/s 193.53 Deg 6.31 µg/m3
2022-06-14 17:00 14.31 µg/m3 2.37 µg/m3 N/A N/A N/A 29.72 °C 36.16 % 1,012.71 mbar 0.88 m/s 254.04 Deg 2.63 µg/m3
2022-06-14 16:00 9.82 µg/m3 1.68 µg/m3 N/A N/A N/A 28.27 °C 48.82 % 1,012.81 mbar 0.94 m/s 302.76 Deg 1.54 µg/m3
2022-06-14 15:00 6.6 µg/m3 2.03 µg/m3 N/A N/A N/A 26.09 °C 72.02 % 1,013.08 mbar 1.2 m/s 196.97 Deg 1.28 µg/m3
2022-06-14 14:00 9.12 µg/m3 2.42 µg/m3 N/A N/A N/A 25.51 °C 76.26 % 1,013.38 mbar 1.1 m/s 164.37 Deg 2.04 µg/m3
2022-06-14 13:00 8.49 µg/m3 0.64 µg/m3 N/A N/A N/A 25.18 °C 77.15 % 1,013.53 mbar 0.82 m/s 206.81 Deg 1.8 µg/m3
2022-06-14 12:00 9.02 µg/m3 0.54 µg/m3 N/A N/A N/A 24.59 °C 78.61 % 1,013.54 mbar 0.79 m/s 200.43 Deg 1.84 µg/m3
2022-06-14 11:00 13.6 µg/m3 0.92 µg/m3 N/A N/A N/A 23.97 °C 80.35 % 1,013.54 mbar 1.11 m/s 154.73 Deg 2.15 µg/m3
2022-06-14 10:00 21.99 µg/m3 1.88 µg/m3 N/A N/A N/A 23.77 °C 80.07 % 1,013.44 mbar 0.85 m/s 173.97 Deg 3.86 µg/m3
2022-06-14 09:00 13.62 µg/m3 1.19 µg/m3 N/A N/A N/A 23.61 °C 80.68 % 1,013.21 mbar 0.53 m/s 271.21 Deg 3.04 µg/m3
2022-06-14 08:00 -2.57 µg/m3 0 µg/m3 N/A N/A N/A 22.9 °C 84.42 % 1,012.95 mbar 0.84 m/s 174.58 Deg 0 µg/m3
2022-06-14 07:00 17.56 µg/m3 -1.48 µg/m3 N/A N/A N/A 22.84 °C 84.87 % 1,012.72 mbar 0.81 m/s 144.23 Deg 2.07 µg/m3
2022-06-14 06:00 13.35 µg/m3 1.22 µg/m3 N/A N/A N/A 22.3 °C 83.54 % 1,012.01 mbar 0.24 m/s 153.98 Deg 0.49 µg/m3
2022-06-14 05:00 26.95 µg/m3 0.31 µg/m3 N/A N/A N/A 22.16 °C 84.12 % 1,011.80 mbar 0.07 m/s 274.93 Deg 0.93 µg/m3
2022-06-14 04:00 34.84 µg/m3 0 µg/m3 N/A N/A N/A 22.31 °C 82.28 % 1,011.66 mbar 0.45 m/s 254.3 Deg 0.74 µg/m3
2022-06-14 03:00 27.58 µg/m3 -0.37 µg/m3 N/A N/A N/A 22.2 °C 83.26 % 1,011.65 mbar 1.27 m/s 219.01 Deg 5.06 µg/m3
2022-06-14 02:00 10.24 µg/m3 0.02 µg/m3 N/A N/A N/A 22.35 °C 81.78 % 1,011.80 mbar 1.97 m/s 218.91 Deg 0.34 µg/m3
2022-06-14 01:00 13.25 µg/m3 -0.06 µg/m3 N/A N/A N/A 22.46 °C 79.4 % 1,012.04 mbar 1.89 m/s 199.68 Deg 1.02 µg/m3
2022-06-14 00:00 9.98 µg/m3 -0.24 µg/m3 N/A N/A N/A 22.69 °C 79.57 % 1,012.24 mbar 3.48 m/s 201.51 Deg 0.68 µg/m3
2022-06-13 23:00 8.77 µg/m3 0.7 µg/m3 N/A N/A N/A 23.48 °C 73.44 % 1,012.21 mbar 5.13 m/s 208.62 Deg 0.49 µg/m3
2022-06-13 22:00 33.68 µg/m3 0.72 µg/m3 N/A N/A N/A 24.15 °C 64.96 % 1,012.48 mbar 3.66 m/s 211.78 Deg 1.29 µg/m3
2022-06-13 21:00 39.71 µg/m3 0.41 µg/m3 N/A N/A N/A 24.25 °C 73.43 % 1,012.28 mbar 0.68 m/s 151.84 Deg 1.54 µg/m3
2022-06-13 20:00 22.18 µg/m3 0.44 µg/m3 N/A N/A N/A 24.72 °C 71.1 % 1,012.19 mbar 0.63 m/s 100.07 Deg 0.72 µg/m3
2022-06-13 19:00 25.27 µg/m3 0.73 µg/m3 N/A N/A N/A 26.57 °C 61.11 % 1,012.05 mbar 0.75 m/s 176.25 Deg 1.36 µg/m3
2022-06-13 18:00 18.13 µg/m3 0.5 µg/m3 N/A N/A N/A 27.08 °C 55.32 % 1,011.95 mbar 1.28 m/s 333.78 Deg 2.1 µg/m3
2022-06-13 17:00 17.12 µg/m3 0.35 µg/m3 N/A N/A N/A 26.78 °C 59.86 % 1,011.97 mbar 1.14 m/s 258.09 Deg 2.93 µg/m3
2022-06-13 16:00 17.56 µg/m3 0.35 µg/m3 N/A N/A N/A 26.88 °C 57.96 % 1,012.19 mbar 1.12 m/s 199.45 Deg 2.87 µg/m3
2022-06-13 15:00 15.98 µg/m3 0.32 µg/m3 N/A N/A N/A 27.74 °C 50.24 % 1,012.32 mbar 0.95 m/s 212.7 Deg 3.2 µg/m3
2022-06-13 14:00 14.52 µg/m3 0.64 µg/m3 N/A N/A N/A 26.93 °C 48.31 % 1,012.64 mbar 1.89 m/s 324.7 Deg 2.69 µg/m3
2022-06-13 13:00 12.84 µg/m3 0.55 µg/m3 N/A N/A N/A 26.62 °C 47.48 % 1,013.06 mbar 1.88 m/s 335.98 Deg 2.93 µg/m3
2022-06-13 12:00 11.97 µg/m3 0.88 µg/m3 N/A N/A N/A 26.65 °C 48.85 % 1,013.42 mbar 0.97 m/s 324.83 Deg 2.82 µg/m3
2022-06-13 11:00 12.19 µg/m3 0.76 µg/m3 N/A N/A N/A 25.76 °C 51.89 % 1,013.48 mbar 1.75 m/s 339.29 Deg 3.06 µg/m3
2022-06-13 10:00 14.06 µg/m3 0.36 µg/m3 N/A N/A N/A 25.58 °C 53.27 % 1,013.38 mbar 1.16 m/s 334.9 Deg 2.9 µg/m3
2022-06-13 09:00 20.63 µg/m3 0.81 µg/m3 N/A N/A N/A 24.59 °C 60.95 % 1,013.19 mbar 1.95 m/s 335.79 Deg 12.5 µg/m3
2022-06-13 08:00 15.62 µg/m3 0.71 µg/m3 N/A N/A N/A 23.88 °C 67.36 % 1,013.00 mbar 1.61 m/s 341.12 Deg 2.26 µg/m3
2022-06-13 07:00 29.16 µg/m3 0.54 µg/m3 N/A N/A N/A 23.45 °C 68.04 % 1,012.62 mbar 0.64 m/s 244.31 Deg 4.06 µg/m3
2022-06-13 06:00 40.04 µg/m3 1.01 µg/m3 N/A N/A N/A 22.61 °C 70.44 % 1,012.04 mbar 0.46 m/s 299.86 Deg 2.67 µg/m3
2022-06-13 05:00 26.85 µg/m3 1.71 µg/m3 N/A N/A N/A 22.41 °C 72.95 % 1,011.70 mbar 0.26 m/s 200.57 Deg 0.5 µg/m3
2022-06-13 04:00 22.58 µg/m3 1.64 µg/m3 N/A N/A N/A 22.21 °C 79.17 % 1,011.49 mbar 0.39 m/s 244.31 Deg 0.39 µg/m3
2022-06-13 03:00 20.08 µg/m3 1.72 µg/m3 N/A N/A N/A 22.56 °C 78.72 % 1,011.61 mbar 0.63 m/s 132.43 Deg 0.25 µg/m3
2022-06-13 02:00 5.97 µg/m3 0.51 µg/m3 N/A N/A N/A 22.69 °C 78.57 % 1,011.95 mbar 0.79 m/s 300.44 Deg 0.15 µg/m3
2022-06-13 01:00 3.06 µg/m3 0.15 µg/m3 N/A N/A N/A 22.54 °C 83.12 % 1,012.40 mbar 1.65 m/s 288.8 Deg 0.19 µg/m3
2022-06-13 00:00 3.5 µg/m3 0.58 µg/m3 N/A N/A N/A 23.3 °C 71.91 % 1,012.81 mbar 2.35 m/s 291.78 Deg 2.53 µg/m3
2022-06-12 23:00 9.84 µg/m3 0.69 µg/m3 N/A N/A N/A 23.57 °C 66.12 % 1,013.21 mbar 1 m/s 243.35 Deg 0.27 µg/m3
2022-06-12 22:00 10.75 µg/m3 0.51 µg/m3 N/A N/A N/A 24.4 °C 61.55 % 1,013.11 mbar 2.4 m/s 269.23 Deg 2.01 µg/m3
2022-06-12 21:00 15.08 µg/m3 0.42 µg/m3 N/A N/A N/A 25.08 °C 57.04 % 1,012.91 mbar 2.11 m/s 265.61 Deg 1.55 µg/m3
2022-06-12 20:00 13.1 µg/m3 0.02 µg/m3 N/A N/A N/A 25.32 °C 58.31 % 1,012.59 mbar 2.75 m/s 257.76 Deg 2 µg/m3
2022-06-12 19:00 18.54 µg/m3 0.19 µg/m3 N/A N/A N/A 26.25 °C 54.94 % 1,012.44 mbar 3.11 m/s 254.28 Deg 5.02 µg/m3
2022-06-12 18:00 7.88 µg/m3 0.16 µg/m3 N/A N/A N/A 27.28 °C 48.48 % 1,012.40 mbar 3.6 m/s 267.03 Deg 1.53 µg/m3
2022-06-12 17:00 6.34 µg/m3 -0.4 µg/m3 N/A N/A N/A 27.69 °C 48.45 % 1,012.51 mbar 3.52 m/s 278.35 Deg 1 µg/m3
2022-06-12 16:00 7.53 µg/m3 -0.53 µg/m3 N/A N/A N/A 26.88 °C 62.38 % 1,012.86 mbar 1.52 m/s 331.76 Deg 1.31 µg/m3
2022-06-12 15:00 9.57 µg/m3 -0.34 µg/m3 N/A N/A N/A 27.32 °C 60.45 % 1,013.13 mbar 1.22 m/s 318.24 Deg 2.51 µg/m3
2022-06-12 14:00 7.62 µg/m3 -0.4 µg/m3 N/A N/A N/A 27.6 °C 48.62 % 1,013.46 mbar 1.4 m/s 252.63 Deg 1.72 µg/m3
2022-06-12 13:00 4.29 µg/m3 -0.62 µg/m3 N/A N/A N/A 26.91 °C 44.97 % 1,013.87 mbar 2.1 m/s 348.77 Deg 1.28 µg/m3
2022-06-12 12:00 7.2 µg/m3 -0.69 µg/m3 N/A N/A N/A 25.87 °C 51.75 % 1,014.28 mbar 2.07 m/s 336.71 Deg 1.32 µg/m3
2022-06-12 11:00 12.66 µg/m3 -0.43 µg/m3 N/A N/A N/A 25.59 °C 55.11 % 1,014.42 mbar 1.21 m/s 226.32 Deg 3.44 µg/m3
2022-06-12 10:00 14.38 µg/m3 -0.19 µg/m3 N/A N/A N/A 24.88 °C 57.75 % 1,014.44 mbar 1.39 m/s 178.52 Deg 3.9 µg/m3
2022-06-12 09:00 12.5 µg/m3 -0.46 µg/m3 N/A N/A N/A 24.4 °C 67.42 % 1,014.21 mbar 1.37 m/s 287.98 Deg 2.18 µg/m3
2022-06-12 08:00 20.13 µg/m3 -0.32 µg/m3 N/A N/A N/A 23.64 °C 73.26 % 1,014.05 mbar 1.4 m/s 273.38 Deg 4.54 µg/m3
2022-06-12 07:00 7.57 µg/m3 -0.92 µg/m3 N/A N/A N/A 22.36 °C 84.33 % 1,013.72 mbar 1.18 m/s 307.66 Deg 0.83 µg/m3
2022-06-12 06:00 16.88 µg/m3 -0.61 µg/m3 N/A N/A N/A 21.93 °C 86.11 % 1,013.41 mbar 0.95 m/s 290.58 Deg 3.64 µg/m3
2022-06-12 05:00 9.61 µg/m3 -0.46 µg/m3 N/A N/A N/A 22.01 °C 84.9 % 1,012.97 mbar 0.55 m/s 281.93 Deg 0.47 µg/m3
2022-06-12 04:00 14.17 µg/m3 -0.21 µg/m3 N/A N/A N/A 21.69 °C 88.74 % 1,012.85 mbar 0.29 m/s 275.4 Deg 1.62 µg/m3
2022-06-12 03:00 6.04 µg/m3 -0.15 µg/m3 N/A N/A N/A 21.74 °C 89.68 % 1,012.99 mbar 0.29 m/s 280.59 Deg 0.19 µg/m3
2022-06-12 02:00 7.57 µg/m3 0.4 µg/m3 N/A N/A N/A 21.74 °C 88.34 % 1,013.07 mbar 0.65 m/s 298.27 Deg 1.05 µg/m3
2022-06-12 01:00 10.54 µg/m3 0.1 µg/m3 N/A N/A N/A 21.98 °C 85.21 % 1,013.32 mbar 1.02 m/s 197.48 Deg 0.37 µg/m3
2022-06-12 00:00 7.78 µg/m3 0.37 µg/m3 N/A N/A N/A 22.71 °C 79.52 % 1,013.25 mbar 1.4 m/s 305.86 Deg 1.27 µg/m3
2022-06-11 23:00 9.66 µg/m3 -0.19 µg/m3 N/A N/A N/A 22.96 °C 75.8 % 1,013.10 mbar 1.99 m/s 293.18 Deg 0.68 µg/m3
2022-06-11 22:00 8.14 µg/m3 0.75 µg/m3 N/A N/A N/A 23.1 °C 76.55 % 1,012.90 mbar 3.28 m/s 256.65 Deg 0.17 µg/m3
2022-06-11 21:00 7.92 µg/m3 0.65 µg/m3 N/A N/A N/A 23.25 °C 74.7 % 1,012.69 mbar 3.35 m/s 243.98 Deg 0.28 µg/m3
2022-06-11 20:00 10.43 µg/m3 0.08 µg/m3 N/A N/A N/A 23.64 °C 71.54 % 1,012.53 mbar 3.88 m/s 237.16 Deg 0.66 µg/m3
2022-06-11 19:00 7.74 µg/m3 0.62 µg/m3 N/A N/A N/A 24.79 °C 65.74 % 1,012.15 mbar 4.66 m/s 261.61 Deg 0.92 µg/m3
2022-06-11 18:00 6.46 µg/m3 -0.08 µg/m3 N/A N/A N/A 26.04 °C 61.03 % 1,011.90 mbar 4.59 m/s 257.98 Deg 1.45 µg/m3
2022-06-11 17:00 9.34 µg/m3 0.52 µg/m3 N/A N/A N/A 26.92 °C 54.67 % 1,011.62 mbar 4.86 m/s 265.39 Deg 3.18 µg/m3
2022-06-11 16:00 15.13 µg/m3 0.17 µg/m3 N/A N/A N/A 26.95 °C 57.75 % 1,011.73 mbar 3.08 m/s 313.57 Deg 6.12 µg/m3
2022-06-11 15:00 7.6 µg/m3 -0.09 µg/m3 N/A N/A N/A 26.44 °C 62.87 % 1,011.85 mbar 2.11 m/s 339.18 Deg 1.65 µg/m3
2022-06-11 14:00 6.22 µg/m3 0.01 µg/m3 N/A N/A N/A 26.12 °C 63.07 % 1,011.92 mbar 2.38 m/s 321.69 Deg 1.59 µg/m3
2022-06-11 13:00 7.03 µg/m3 0.08 µg/m3 N/A N/A N/A 25.83 °C 59.33 % 1,012.05 mbar 2.43 m/s 326.4 Deg 2 µg/m3
2022-06-11 12:00 9.16 µg/m3 0.22 µg/m3 N/A N/A N/A 25.04 °C 59.31 % 1,012.27 mbar 2.47 m/s 310 Deg 4.77 µg/m3
2022-06-11 11:00 4.32 µg/m3 0.09 µg/m3 N/A N/A N/A 24.26 °C 67.04 % 1,012.31 mbar 2.74 m/s 312.68 Deg 1.58 µg/m3
2022-06-11 10:00 5.69 µg/m3 -0.16 µg/m3 N/A N/A N/A 23.71 °C 70.63 % 1,012.07 mbar 2.92 m/s 311.63 Deg 2.64 µg/m3
2022-06-11 09:00 7.77 µg/m3 0.2 µg/m3 N/A N/A N/A 23.62 °C 68.17 % 1,011.71 mbar 2.98 m/s 297.65 Deg 1.95 µg/m3
2022-06-11 08:00 10.41 µg/m3 1.01 µg/m3 N/A N/A N/A 23.15 °C 70.89 % 1,011.38 mbar 2.86 m/s 294.33 Deg 4.23 µg/m3
2022-06-11 07:00 8.41 µg/m3 1.61 µg/m3 N/A N/A N/A 22.65 °C 71.99 % 1,010.85 mbar 3.18 m/s 294.47 Deg 1.45 µg/m3
2022-06-11 06:00 14.21 µg/m3 0.44 µg/m3 N/A N/A N/A 21.83 °C 76.83 % 1,010.45 mbar 2.77 m/s 239.69 Deg 1.2 µg/m3
2022-06-11 05:00 8.98 µg/m3 0.42 µg/m3 N/A N/A N/A 21.59 °C 81.33 % 1,009.95 mbar 2.42 m/s 271.71 Deg 1.12 µg/m3
2022-06-11 04:00 3.83 µg/m3 0.33 µg/m3 N/A N/A N/A 21.48 °C 83.25 % 1,009.49 mbar 3.33 m/s 276.58 Deg 0.07 µg/m3
2022-06-11 03:00 5.08 µg/m3 0.28 µg/m3 N/A N/A N/A 21.63 °C 82.91 % 1,009.18 mbar 2.96 m/s 283.71 Deg 0.63 µg/m3
2022-06-11 02:00 3.67 µg/m3 0.1 µg/m3 N/A N/A N/A 21.63 °C 83.22 % 1,009.25 mbar 3.66 m/s 282.69 Deg 0.24 µg/m3
2022-06-11 01:00 3.04 µg/m3 -0.19 µg/m3 N/A N/A N/A 21.78 °C 82.17 % 1,009.55 mbar 3.4 m/s 280.36 Deg 0.18 µg/m3
2022-06-11 00:00 4.99 µg/m3 0.21 µg/m3 N/A N/A N/A 22.24 °C 77.85 % 1,009.59 mbar 3.18 m/s 291.05 Deg 0.57 µg/m3
2022-06-10 23:00 5.18 µg/m3 0.01 µg/m3 N/A N/A N/A 22.44 °C 75.11 % 1,009.61 mbar 2.89 m/s 291.51 Deg 0.38 µg/m3
2022-06-10 22:00 5.46 µg/m3 0.08 µg/m3 N/A N/A N/A 22.47 °C 74.14 % 1,009.29 mbar 4.98 m/s 270.22 Deg 0.37 µg/m3
2022-06-10 21:00 4.95 µg/m3 0.25 µg/m3 N/A N/A N/A 22.88 °C 71.35 % 1,008.45 mbar 5.14 m/s 268.38 Deg 0.97 µg/m3
2022-06-10 20:00 8.38 µg/m3 0.06 µg/m3 N/A N/A N/A 23.26 °C 69.51 % 1,007.61 mbar 4.72 m/s 278.29 Deg 2.31 µg/m3
2022-06-10 19:00 8.44 µg/m3 0.2 µg/m3 N/A N/A N/A 23.68 °C 67.24 % 1,007.09 mbar 6.23 m/s 273.65 Deg 2.19 µg/m3
2022-06-10 18:00 7.44 µg/m3 -0.24 µg/m3 N/A N/A N/A 23.92 °C 66.91 % 1,006.49 mbar 6.58 m/s 272.77 Deg 2.94 µg/m3
2022-06-10 17:00 8.46 µg/m3 0.07 µg/m3 N/A N/A N/A 23.85 °C 66.84 % 1,006.35 mbar 7.3 m/s 266.66 Deg 3.11 µg/m3
2022-06-10 16:00 6.88 µg/m3 -0.06 µg/m3 N/A N/A N/A 23.67 °C 67.06 % 1,006.55 mbar 6.69 m/s 271.93 Deg 1.61 µg/m3
2022-06-10 15:00 6.43 µg/m3 0.07 µg/m3 N/A N/A N/A 23.32 °C 70.36 % 1,006.55 mbar 8.6 m/s 260.34 Deg 2.57 µg/m3
2022-06-10 14:00 7.16 µg/m3 0.12 µg/m3 N/A N/A N/A 23.01 °C 72.69 % 1,006.73 mbar 9.23 m/s 263.2 Deg 2.49 µg/m3
2022-06-10 13:00 4.7 µg/m3 0.15 µg/m3 N/A N/A N/A 23.47 °C 66.73 % 1,006.96 mbar 9.19 m/s 259.12 Deg 1.17 µg/m3
2022-06-10 12:00 6.21 µg/m3 -0.41 µg/m3 N/A N/A N/A 23.88 °C 63.15 % 1,007.11 mbar 7.71 m/s 262.61 Deg 1.6 µg/m3
2022-06-10 11:00 7.5 µg/m3 -0.19 µg/m3 N/A N/A N/A 23.48 °C 66.93 % 1,007.06 mbar 6.17 m/s 261.59 Deg 2.15 µg/m3
2022-06-10 10:00 7.29 µg/m3 -0.38 µg/m3 N/A N/A N/A 22.89 °C 69.3 % 1,006.81 mbar 6.41 m/s 269.6 Deg 2.79 µg/m3
2022-06-10 09:00 8.69 µg/m3 -0.3 µg/m3 N/A N/A N/A 22.64 °C 71.64 % 1,006.56 mbar 5.24 m/s 273.22 Deg 2.13 µg/m3
2022-06-10 08:00 9.39 µg/m3 -0.11 µg/m3 N/A N/A N/A 21.99 °C 76.22 % 1,006.39 mbar 5.75 m/s 263.71 Deg 3.05 µg/m3
2022-06-10 07:00 9.42 µg/m3 0.37 µg/m3 N/A N/A N/A 21.36 °C 79.81 % 1,006.48 mbar 5.83 m/s 260.78 Deg 2.08 µg/m3
2022-06-10 06:00 7.38 µg/m3 0.35 µg/m3 N/A N/A N/A 21.01 °C 79.84 % 1,006.30 mbar 5.85 m/s 254.89 Deg 0.5 µg/m3
2022-06-10 05:00 4.85 µg/m3 1.53 µg/m3 N/A N/A N/A 20.99 °C 78.51 % 1,006.18 mbar 5.72 m/s 261.99 Deg 0.32 µg/m3
2022-06-10 04:00 1.73 µg/m3 2.02 µg/m3 N/A N/A N/A 21.02 °C 77.35 % 1,006.14 mbar 6.63 m/s 257.92 Deg 0.5 µg/m3
2022-06-10 03:00 3.9 µg/m3 2.78 µg/m3 N/A N/A N/A 21.26 °C 75.86 % 1,006.21 mbar 6.94 m/s 253.99 Deg 0.37 µg/m3
2022-06-10 02:00 1.67 µg/m3 3.57 µg/m3 N/A N/A N/A 21.48 °C 74.7 % 1,006.22 mbar 7.14 m/s 262.51 Deg 0.1 µg/m3
2022-06-10 01:00 0.95 µg/m3 0.65 µg/m3 N/A N/A N/A 21.57 °C 75.63 % 1,006.73 mbar 6.85 m/s 262.64 Deg 0.08 µg/m3
2022-06-10 00:00 2.25 µg/m3 0.23 µg/m3 N/A N/A N/A 21.8 °C 75.59 % 1,006.88 mbar 7.19 m/s 249.8 Deg 0.24 µg/m3
2022-06-09 23:00 25.96 µg/m3 0.51 µg/m3 N/A N/A N/A 22.09 °C 75.25 % 1,007.31 mbar 7.02 m/s 251.62 Deg 21.6 µg/m3
2022-06-09 22:00 12.99 µg/m3 2.49 µg/m3 N/A N/A N/A 22.27 °C 80.97 % 1,007.42 mbar 7.03 m/s 259.28 Deg 4.05 µg/m3
2022-06-09 21:00 26.62 µg/m3 1.71 µg/m3 N/A N/A N/A 22.44 °C 83.01 % 1,007.23 mbar 6.8 m/s 253.35 Deg 10.65 µg/m3
2022-06-09 20:00 35.55 µg/m3 3.55 µg/m3 N/A N/A N/A 22.81 °C 80.6 % 1,006.94 mbar 5.84 m/s 246.21 Deg 18.73 µg/m3
2022-06-09 19:00 20.34 µg/m3 2.05 µg/m3 N/A N/A N/A 23.48 °C 75.69 % 1,006.61 mbar 6.56 m/s 255.26 Deg 5.97 µg/m3
2022-06-09 18:00 18.45 µg/m3 0.99 µg/m3 N/A N/A N/A 23.91 °C 73 % 1,006.49 mbar 7.06 m/s 256.32 Deg 9.7 µg/m3
2022-06-09 17:00 24.51 µg/m3 0.66 µg/m3 N/A N/A N/A 24.13 °C 70.84 % 1,006.64 mbar 7.48 m/s 258.05 Deg 18.06 µg/m3
2022-06-09 16:00 13.5 µg/m3 1.78 µg/m3 N/A N/A N/A 24.71 °C 63.72 % 1,006.83 mbar 7.89 m/s 257.68 Deg 5.18 µg/m3
2022-06-09 15:00 14.06 µg/m3 2.84 µg/m3 N/A N/A N/A 24.99 °C 62.74 % 1,007.16 mbar 8.03 m/s 260.83 Deg 8.12 µg/m3
2022-06-09 14:00 20.22 µg/m3 3.44 µg/m3 N/A N/A N/A 25.4 °C 59.73 % 1,007.50 mbar 7.78 m/s 263.19 Deg 11.84 µg/m3
2022-06-09 13:00 16.72 µg/m3 3.53 µg/m3 N/A N/A N/A 26.75 °C 47.56 % 1,007.60 mbar 5.59 m/s 264.41 Deg 6.47 µg/m3
2022-06-09 12:00 24.38 µg/m3 3.6 µg/m3 N/A N/A N/A 26.64 °C 49.61 % 1,008.02 mbar 5.8 m/s 251.54 Deg 17.25 µg/m3
2022-06-09 11:00 26.02 µg/m3 0.56 µg/m3 N/A N/A N/A 26.5 °C 54.25 % 1,008.46 mbar 5.73 m/s 252.58 Deg 27.35 µg/m3
2022-06-09 10:00 27.65 µg/m3 0.61 µg/m3 N/A N/A N/A 26.15 °C 57.84 % 1,008.51 mbar 4.89 m/s 252.33 Deg 31.02 µg/m3
2022-06-09 09:00 41.19 µg/m3 0.47 µg/m3 N/A N/A N/A 26.23 °C 67.12 % 1,008.28 mbar 1.04 m/s 303.57 Deg 15.58 µg/m3
2022-06-09 08:00 18.75 µg/m3 2.96 µg/m3 N/A N/A N/A 25.33 °C 66.09 % 1,007.93 mbar 1.18 m/s 318.83 Deg 3.74 µg/m3
2022-06-09 07:00 18.43 µg/m3 1.2 µg/m3 N/A N/A N/A 24.42 °C 65.71 % 1,007.90 mbar 1.58 m/s 290.23 Deg 3 µg/m3
2022-06-09 06:00 21.51 µg/m3 0.99 µg/m3 N/A N/A N/A 24.14 °C 59.83 % 1,007.75 mbar 2.24 m/s 272.49 Deg 8.15 µg/m3
2022-06-09 05:00 33.21 µg/m3 0.23 µg/m3 N/A N/A N/A 23.62 °C 67.11 % 1,007.59 mbar 2.72 m/s 228.73 Deg 10.37 µg/m3
2022-06-09 04:00 8.68 µg/m3 -0.07 µg/m3 N/A N/A N/A 23.49 °C 70.98 % 1,007.72 mbar 3.3 m/s 251.08 Deg 1.26 µg/m3
2022-06-09 03:00 5.5 µg/m3 0.19 µg/m3 N/A N/A N/A 23.62 °C 73.3 % 1,007.70 mbar 3.81 m/s 242.71 Deg 0.35 µg/m3
2022-06-09 02:00 8.81 µg/m3 2.05 µg/m3 N/A N/A N/A 23.78 °C 70.78 % 1,007.96 mbar 4.55 m/s 225.45 Deg 0.2 µg/m3
2022-06-09 01:00 7.56 µg/m3 4.15 µg/m3 N/A N/A N/A 24.28 °C 63.27 % 1,008.36 mbar 2.99 m/s 227.43 Deg 0.13 µg/m3
2022-06-09 00:00 7.29 µg/m3 3.29 µg/m3 N/A N/A N/A 24.44 °C 62.39 % 1,008.84 mbar 2.2 m/s 236.98 Deg 0.6 µg/m3
2022-06-08 23:00 28.78 µg/m3 2.89 µg/m3 N/A N/A N/A 24.42 °C 65.84 % 1,009.24 mbar 1.84 m/s 260.91 Deg 9.58 µg/m3
2022-06-08 22:00 12.27 µg/m3 3.15 µg/m3 N/A N/A N/A 24.85 °C 60.81 % 1,009.53 mbar 2.91 m/s 250.1 Deg 1.04 µg/m3
2022-06-08 21:00 5.98 µg/m3 3.38 µg/m3 N/A N/A N/A 25.17 °C 56.46 % 1,009.02 mbar 6.56 m/s 235.63 Deg 0.59 µg/m3
2022-06-08 20:00 8.78 µg/m3 4.7 µg/m3 N/A N/A N/A 25.51 °C 59.44 % 1,008.74 mbar 4.85 m/s 237 Deg 0.39 µg/m3
2022-06-08 19:00 6.58 µg/m3 0.57 µg/m3 N/A N/A N/A 26.06 °C 60.43 % 1,008.68 mbar 6.18 m/s 230.22 Deg 0.36 µg/m3
2022-06-08 18:00 9.33 µg/m3 2.65 µg/m3 N/A N/A N/A 27.68 °C 48.76 % 1,008.55 mbar 5.24 m/s 253.15 Deg 1.81 µg/m3
2022-06-08 17:00 19.57 µg/m3 3.52 µg/m3 N/A N/A N/A 29.74 °C 35.11 % 1,008.68 mbar 3.22 m/s 270.63 Deg 6.71 µg/m3
2022-06-08 16:00 29.29 µg/m3 9.83 µg/m3 N/A N/A N/A 29.94 °C 44.3 % 1,008.91 mbar 1.74 m/s 258.48 Deg 23.17 µg/m3
2022-06-08 15:00 31.17 µg/m3 0.71 µg/m3 N/A N/A N/A 29.03 °C 60.43 % 1,009.11 mbar 1.11 m/s 248.25 Deg 9.5 µg/m3
2022-06-08 14:00 31.34 µg/m3 1.83 µg/m3 N/A N/A N/A 28.74 °C 62.74 % 1,009.16 mbar 1 m/s 201.28 Deg 10.05 µg/m3
2022-06-08 13:00 13.97 µg/m3 3.17 µg/m3 N/A N/A N/A 27.63 °C 64.33 % 1,009.55 mbar 0.92 m/s 196.27 Deg 3.09 µg/m3
2022-06-08 12:00 15.52 µg/m3 1.09 µg/m3 N/A N/A N/A 26.81 °C 64.38 % 1,010.03 mbar 0.95 m/s 166.06 Deg 4.76 µg/m3
2022-06-08 11:00 18.91 µg/m3 2.25 µg/m3 N/A N/A N/A 26.93 °C 56.14 % 1,010.07 mbar 1.05 m/s 231.27 Deg 4.36 µg/m3
2022-06-08 10:00 25.27 µg/m3 1.98 µg/m3 N/A N/A N/A 27.46 °C 41.93 % 1,010.10 mbar 0.71 m/s 264.65 Deg 7.17 µg/m3
2022-06-08 09:00 21.16 µg/m3 2.84 µg/m3 N/A N/A N/A 27.35 °C 37.71 % 1,009.84 mbar 0.79 m/s 330.19 Deg 5.59 µg/m3
2022-06-08 08:00 52.37 µg/m3 3.15 µg/m3 N/A N/A N/A 25.79 °C 52.57 % 1,009.43 mbar 1.23 m/s 281.92 Deg 23.76 µg/m3
2022-06-08 07:00 32.11 µg/m3 1.68 µg/m3 N/A N/A N/A 23.65 °C 79.94 % 1,008.84 mbar 1.26 m/s 288.43 Deg 13.58 µg/m3
2022-06-08 06:00 20.07 µg/m3 0.95 µg/m3 N/A N/A N/A 23.16 °C 85.77 % 1,008.40 mbar 1.14 m/s 272.3 Deg 6.19 µg/m3
2022-06-08 05:00 7.62 µg/m3 N/A N/A N/A N/A 23.26 °C 83.95 % 1,008.27 mbar 1.59 m/s 337.83 Deg 0.48 µg/m3
2022-06-08 04:00 5.45 µg/m3 N/A N/A N/A N/A 23.42 °C 79.9 % 1,008.02 mbar 2.11 m/s 342.18 Deg 0.33 µg/m3
2022-06-08 03:00 4.78 µg/m3 N/A N/A N/A N/A 23.2 °C 82.85 % 1,008.05 mbar 2.21 m/s 322.61 Deg -0.03 µg/m3
2022-06-08 02:00 2.69 µg/m3 N/A N/A N/A N/A 23.32 °C 85.68 % 1,008.18 mbar 2.72 m/s 314.08 Deg 0.12 µg/m3
2022-06-08 01:00 3.22 µg/m3 N/A N/A N/A N/A 24.24 °C 76.32 % 1,008.39 mbar 2.96 m/s 286.03 Deg 0.08 µg/m3
2022-06-08 00:00 4.8 µg/m3 N/A N/A N/A N/A 24.47 °C 70.29 % 1,008.78 mbar 2.83 m/s 271.24 Deg 1.61 µg/m3
2022-06-07 23:00 13.18 µg/m3 N/A N/A N/A N/A 24.7 °C 67.8 % 1,009.60 mbar 3.43 m/s 219.8 Deg 0.42 µg/m3
2022-06-07 22:00 29.64 µg/m3 N/A N/A N/A N/A 24.92 °C 63.95 % 1,009.74 mbar 3.77 m/s 228.96 Deg 6.01 µg/m3
2022-06-07 21:00 21.31 µg/m3 N/A N/A N/A N/A 26.1 °C 53.77 % 1,009.37 mbar 2.56 m/s 251.36 Deg 3.46 µg/m3
2022-06-07 20:00 9.45 µg/m3 N/A N/A N/A N/A 26.87 °C 41.74 % 1,009.14 mbar 2.43 m/s 280.23 Deg 1.01 µg/m3
2022-06-07 19:00 11.78 µg/m3 N/A N/A N/A N/A 27.88 °C 36.52 % 1,008.89 mbar 2.2 m/s 281.13 Deg 1.03 µg/m3
2022-06-07 18:00 14.52 µg/m3 N/A N/A N/A N/A 28.24 °C 42.6 % 1,008.68 mbar 1.3 m/s 337.33 Deg 3.02 µg/m3
2022-06-07 17:00 8.02 µg/m3 N/A N/A N/A N/A 27.7 °C 46.04 % 1,008.87 mbar 2.1 m/s 343.26 Deg 1.07 µg/m3
2022-06-07 16:00 7.25 µg/m3 N/A N/A N/A N/A 27.39 °C 54.49 % 1,009.53 mbar 2.42 m/s 347.21 Deg 1.01 µg/m3
2022-06-07 15:00 8.93 µg/m3 N/A N/A N/A N/A 28.06 °C 55.61 % 1,009.99 mbar 2.24 m/s 344.03 Deg 1.26 µg/m3
2022-06-07 14:00 14.66 µg/m3 N/A N/A N/A N/A 28.95 °C 50.24 % 1,010.26 mbar 2.16 m/s 319.68 Deg 5.2 µg/m3
2022-06-07 13:00 30.06 µg/m3 N/A N/A N/A N/A 29.73 °C 41.17 % 1,010.44 mbar 3 m/s 194.6 Deg 17.36 µg/m3
2022-06-07 12:00 35.61 µg/m3 N/A N/A N/A N/A 29.06 °C 49.51 % 1,010.65 mbar 2.25 m/s 179.03 Deg 13.61 µg/m3
2022-06-07 11:00 20.25 µg/m3 N/A N/A N/A N/A 28.03 °C 56.7 % 1,011.13 mbar 2.36 m/s 192.8 Deg 6.33 µg/m3
2022-06-07 10:00 16.82 µg/m3 N/A N/A N/A N/A 27.68 °C 50.04 % 1,010.82 mbar 0.71 m/s 161.67 Deg 7.31 µg/m3
2022-06-07 09:00 23.95 µg/m3 N/A N/A N/A N/A 25.96 °C 68.48 % 1,010.34 mbar 0.69 m/s 194.91 Deg 14.39 µg/m3
2022-06-07 08:00 12.27 µg/m3 N/A N/A N/A N/A 25.55 °C 67.31 % 1,010.19 mbar 0.96 m/s 284.03 Deg 2.69 µg/m3
2022-06-07 07:00 16.81 µg/m3 N/A N/A N/A N/A 25.85 °C 58.26 % 1,009.98 mbar 1.35 m/s 345.99 Deg 5.53 µg/m3
2022-06-07 06:00 7.06 µg/m3 N/A N/A N/A N/A 26.91 °C 44.39 % 1,009.85 mbar 1.52 m/s 316.1 Deg 0.65 µg/m3
2022-06-07 05:00 6.98 µg/m3 N/A N/A N/A N/A 26.96 °C 40.99 % 1,009.96 mbar 2.12 m/s 289.38 Deg 0.97 µg/m3
2022-06-07 04:00 3.31 µg/m3 N/A N/A N/A N/A 26.58 °C 47.57 % 1,010.25 mbar 3.18 m/s 275.71 Deg 0.53 µg/m3
2022-06-07 03:00 7.97 µg/m3 N/A N/A N/A N/A 25.12 °C 64.45 % 1,010.96 mbar 3.63 m/s 238.44 Deg 0.31 µg/m3
2022-06-07 02:00 16.85 µg/m3 N/A N/A N/A N/A 26.52 °C 54.31 % 1,011.04 mbar 3.04 m/s 217.86 Deg 0.17 µg/m3
2022-06-07 01:00 7.93 µg/m3 N/A N/A N/A N/A 27 °C 52.98 % 1,011.14 mbar 2.33 m/s 243.31 Deg 0.43 µg/m3
2022-06-07 00:00 14.13 µg/m3 N/A N/A N/A N/A 26.83 °C 55.66 % 1,011.41 mbar 2.46 m/s 235.43 Deg 0.3 µg/m3
2022-06-06 23:00 13.07 µg/m3 N/A N/A N/A N/A 27.23 °C 50.34 % 1,011.57 mbar 2.22 m/s 247.93 Deg 0.24 µg/m3
2022-06-06 22:00 49.46 µg/m3 N/A N/A N/A N/A 27.68 °C 49.21 % 1,011.51 mbar 3.3 m/s 225.48 Deg 62.3 µg/m3
2022-06-06 21:00 71.93 µg/m3 N/A N/A N/A N/A 27.37 °C 53.13 % 1,011.37 mbar 3.75 m/s 221.88 Deg 57.25 µg/m3
2022-06-06 20:00 64.66 µg/m3 N/A N/A N/A N/A 27.22 °C 54.06 % 1,011.34 mbar 3.95 m/s 218.79 Deg 38.47 µg/m3
2022-06-06 19:00 56.22 µg/m3 N/A N/A N/A N/A 28.14 °C 48.24 % 1,011.42 mbar 4.45 m/s 229.15 Deg 40.48 µg/m3
2022-06-06 18:00 67.81 µg/m3 N/A N/A N/A N/A 28.09 °C 50.75 % 1,011.64 mbar 4.35 m/s 231.06 Deg 60.09 µg/m3
2022-06-06 17:00 41 µg/m3 N/A N/A N/A N/A 27.65 °C 57.37 % 1,011.93 mbar 5.23 m/s 242.9 Deg 25.89 µg/m3
2022-06-06 16:00 47.39 µg/m3 N/A N/A N/A N/A 27.69 °C 58.64 % 1,012.15 mbar 6.24 m/s 225.48 Deg 48.32 µg/m3
2022-06-06 15:00 41.9 µg/m3 N/A N/A N/A N/A 27.34 °C 63.09 % 1,012.46 mbar 7.05 m/s 216.96 Deg 41.7 µg/m3
2022-06-06 14:00 83.28 µg/m3 N/A N/A N/A N/A 27.32 °C 65.64 % 1,012.75 mbar 7.36 m/s 221.87 Deg 81.72 µg/m3
2022-06-06 13:00 60.68 µg/m3 N/A N/A N/A N/A 27.93 °C 63.2 % 1,012.92 mbar 6.11 m/s 230.44 Deg 73.88 µg/m3
2022-06-06 12:00 15.43 µg/m3 N/A N/A N/A N/A 27.84 °C 62.3 % 1,013.03 mbar 5.68 m/s 240.36 Deg 4.15 µg/m3
2022-06-06 11:00 19.23 µg/m3 N/A N/A N/A N/A 27.67 °C 60.58 % 1,013.01 mbar 5.76 m/s 209.68 Deg 6.07 µg/m3
2022-06-06 10:00 24.82 µg/m3 N/A N/A N/A N/A 27.2 °C 62.98 % 1,013.01 mbar 5.52 m/s 215.83 Deg 6.19 µg/m3
2022-06-06 09:00 26.13 µg/m3 N/A N/A N/A N/A 27.14 °C 61.11 % 1,013.15 mbar 4.62 m/s 214.58 Deg 6.91 µg/m3
2022-06-06 08:00 19.61 µg/m3 N/A N/A N/A N/A 25.89 °C 65.47 % 1,013.33 mbar 5.92 m/s 227.1 Deg 4.06 µg/m3
2022-06-06 07:00 25.36 µg/m3 N/A N/A N/A N/A 24.92 °C 70.27 % 1,013.29 mbar 5.19 m/s 239.96 Deg 6.72 µg/m3
2022-06-06 06:00 22.02 µg/m3 N/A N/A N/A N/A 24.43 °C 75.26 % 1,013.35 mbar 4.92 m/s 238.52 Deg 4.07 µg/m3
2022-06-06 05:00 15.61 µg/m3 N/A N/A N/A N/A 24.69 °C 75.84 % 1,013.09 mbar 4.17 m/s 238.37 Deg 2.64 µg/m3
2022-06-06 04:00 13.79 µg/m3 N/A N/A N/A N/A 25.32 °C 69 % 1,012.96 mbar 3.12 m/s 226.81 Deg 0.72 µg/m3
2022-06-06 03:00 19.19 µg/m3 N/A N/A N/A N/A 25.99 °C 61.82 % 1,013.23 mbar 2.21 m/s 195.38 Deg 0.93 µg/m3
2022-06-06 02:00 9.7 µg/m3 N/A N/A N/A N/A 26.06 °C 61.47 % 1,013.42 mbar 3.26 m/s 234.53 Deg 0.24 µg/m3
2022-06-06 01:00 30.28 µg/m3 N/A N/A N/A N/A 26.59 °C 55.37 % 1,013.89 mbar 2.72 m/s 245 Deg 1.8 µg/m3
2022-06-06 00:00 31.53 µg/m3 N/A N/A N/A N/A 26.91 °C 54.28 % 1,014.31 mbar 2.26 m/s 247.91 Deg 6.62 µg/m3
2022-06-05 23:00 29.02 µg/m3 N/A N/A N/A N/A 27.29 °C 50.74 % 1,014.42 mbar 1.24 m/s 293.97 Deg 2.48 µg/m3
2022-06-05 22:00 58.34 µg/m3 N/A N/A N/A N/A 27.2 °C 61.32 % 1,014.49 mbar 0.45 m/s 298.97 Deg 6.5 µg/m3
2022-06-05 21:00 55.37 µg/m3 N/A N/A N/A N/A 26.61 °C 72.96 % 1,014.28 mbar 0.43 m/s 232.79 Deg 3.52 µg/m3
2022-06-05 20:00 17.43 µg/m3 N/A N/A N/A N/A 27.07 °C 65.26 % 1,014.30 mbar 1.31 m/s 349.13 Deg 0.69 µg/m3
2022-06-05 19:00 32.01 µg/m3 N/A N/A N/A N/A 28.33 °C 54.1 % 1,014.17 mbar 1.61 m/s 264.83 Deg 2.46 µg/m3
2022-06-05 18:00 43.27 µg/m3 N/A N/A N/A N/A 30.3 °C 49.13 % 1,014.03 mbar 0.9 m/s 264.56 Deg 9.1 µg/m3
2022-06-05 17:00 39.71 µg/m3 N/A N/A N/A N/A 31.27 °C 44.17 % 1,014.15 mbar 1.05 m/s 258.88 Deg 7.99 µg/m3
2022-06-05 16:00 15.08 µg/m3 N/A N/A N/A N/A 32.52 °C 30.23 % 1,014.59 mbar 1.14 m/s 330.18 Deg 2.1 µg/m3
2022-06-05 15:00 9.51 µg/m3 N/A N/A N/A N/A 31.63 °C 32.92 % 1,015.08 mbar 1.57 m/s 346.33 Deg 1.28 µg/m3
2022-06-05 14:00 14.32 µg/m3 N/A N/A N/A N/A 31.52 °C 33.54 % 1,015.18 mbar 1.36 m/s 176.36 Deg 2.44 µg/m3
2022-06-05 13:00 10.83 µg/m3 N/A N/A N/A N/A 31.89 °C 27.41 % 1,015.43 mbar 1.46 m/s 348.76 Deg 2.49 µg/m3
2022-06-05 12:00 14.36 µg/m3 N/A N/A N/A N/A 31.98 °C 25.92 % 1,015.39 mbar 1.57 m/s 305.64 Deg 3.21 µg/m3
2022-06-05 11:00 21.86 µg/m3 N/A N/A N/A N/A 31.29 °C 27.73 % 1,015.35 mbar 2.26 m/s 285.83 Deg 16.89 µg/m3
2022-06-05 10:00 17.5 µg/m3 N/A N/A N/A N/A 29.64 °C 38.85 % 1,015.41 mbar 1.81 m/s 295.3 Deg 4.07 µg/m3
2022-06-05 09:00 12.9 µg/m3 N/A N/A N/A N/A 28.89 °C 42.93 % 1,015.63 mbar 1.43 m/s 342.07 Deg 2.06 µg/m3
2022-06-05 08:00 22.46 µg/m3 N/A N/A N/A N/A 28.01 °C 47.92 % 1,015.67 mbar 1.28 m/s 337.79 Deg 2.83 µg/m3
2022-06-05 07:00 12.77 µg/m3 N/A N/A N/A 0 mg/m3 26.86 °C 47.96 % 1,015.17 mbar 2.04 m/s 279.68 Deg 1.95 µg/m3
2022-06-05 06:00 11.05 µg/m3 N/A N/A N/A 0 mg/m3 26.32 °C 48.86 % 1,014.78 mbar 1.55 m/s 301.49 Deg 0.72 µg/m3
2022-06-05 05:00 65.51 µg/m3 N/A N/A N/A 0 mg/m3 26.54 °C 38.18 % 1,014.46 mbar 0.62 m/s 290.05 Deg 50.39 µg/m3
2022-06-05 04:00 65.35 µg/m3 N/A N/A N/A 0 mg/m3 26.75 °C 35.26 % 1,014.25 mbar 0.25 m/s 259.74 Deg 23.25 µg/m3
2022-06-05 03:00 57.09 µg/m3 N/A N/A N/A 0 mg/m3 26.85 °C 33.26 % 1,014.41 mbar 0.99 m/s 216.13 Deg 8.33 µg/m3
2022-06-05 02:00 29.14 µg/m3 N/A N/A N/A 0 mg/m3 27.15 °C 35.21 % 1,015.00 mbar 2.32 m/s 218.71 Deg 1.08 µg/m3
2022-06-05 01:00 14.77 µg/m3 N/A N/A N/A 0 mg/m3 27.58 °C 33.36 % 1,015.55 mbar 1.81 m/s 269.91 Deg -0.06 µg/m3
2022-06-05 00:00 66.34 µg/m3 N/A N/A N/A 0 mg/m3 27.7 °C 32.2 % 1,015.51 mbar 0.8 m/s 204.86 Deg 4.61 µg/m3
2022-06-04 23:00 69.59 µg/m3 N/A N/A N/A 0 mg/m3 27.92 °C 31.34 % 1,015.44 mbar 1.36 m/s 190.38 Deg 12.15 µg/m3
2022-06-04 22:00 57.1 µg/m3 N/A N/A N/A 0 mg/m3 27.9 °C 33.47 % 1,015.71 mbar 1.65 m/s 190.43 Deg 7.87 µg/m3
2022-06-04 21:00 53.26 µg/m3 N/A N/A N/A 0 mg/m3 28.48 °C 36.91 % 1,015.67 mbar 1.45 m/s 230.58 Deg 3.07 µg/m3
2022-06-04 20:00 38.35 µg/m3 N/A N/A N/A 0 mg/m3 28.46 °C 45.49 % 1,015.43 mbar 1.26 m/s 72.19 Deg 1.95 µg/m3
2022-06-04 19:00 37.87 µg/m3 N/A N/A N/A 0 mg/m3 27.98 °C 51.62 % 1,015.08 mbar 0.88 m/s 191.99 Deg 1.55 µg/m3
2022-06-04 18:00 35.12 µg/m3 N/A N/A N/A 0 mg/m3 28.52 °C 50.61 % 1,014.89 mbar 0.86 m/s 109.35 Deg 3.06 µg/m3
2022-06-04 17:00 23.97 µg/m3 N/A N/A N/A 0 mg/m3 29.39 °C 45.06 % 1,014.89 mbar 1.3 m/s 212.92 Deg 3.15 µg/m3
2022-06-04 16:00 59.66 µg/m3 N/A N/A N/A 0 mg/m3 31.64 °C 31.47 % 1,014.98 mbar 0.99 m/s 325.22 Deg 29.3 µg/m3
2022-06-04 15:00 14.22 µg/m3 N/A N/A N/A 0 mg/m3 32.31 °C 22.64 % 1,015.25 mbar 1.55 m/s 342.27 Deg 2.51 µg/m3
2022-06-04 14:00 25.81 µg/m3 N/A N/A N/A 0 mg/m3 31.35 °C 26.11 % 1,015.63 mbar 1.28 m/s 183.58 Deg 8.88 µg/m3
2022-06-04 13:00 28.44 µg/m3 N/A N/A N/A 0 mg/m3 30.28 °C 33.4 % 1,015.92 mbar 0.98 m/s 179.27 Deg 7.45 µg/m3
2022-06-04 12:00 22.67 µg/m3 N/A N/A N/A 0 mg/m3 29.94 °C 32.6 % 1,016.02 mbar 1.26 m/s 172.93 Deg 5.37 µg/m3
2022-06-04 11:00 22.84 µg/m3 N/A N/A N/A 0 mg/m3 29.41 °C 30.5 % 1,016.09 mbar 1.57 m/s 307.66 Deg 6.4 µg/m3
2022-06-04 10:00 26.15 µg/m3 N/A N/A N/A 0 mg/m3 28.15 °C 35.95 % 1,015.99 mbar 1.93 m/s 305.81 Deg 9.85 µg/m3
2022-06-04 09:00 28.5 µg/m3 N/A N/A N/A 0 mg/m3 28.68 °C 30.92 % 1,015.69 mbar 1.57 m/s 336.43 Deg 6.79 µg/m3
2022-06-04 08:00 76.4 µg/m3 N/A N/A N/A 0 mg/m3 27.66 °C 33.59 % 1,015.54 mbar 0.58 m/s 148.31 Deg 49.95 µg/m3
2022-06-04 07:00 85.93 µg/m3 N/A N/A N/A 0 mg/m3 24.83 °C 40.22 % 1,015.18 mbar 0.73 m/s 184.77 Deg 72.7 µg/m3
2022-06-04 06:00 76.5 µg/m3 N/A N/A N/A 0 mg/m3 23.13 °C 48.1 % 1,014.72 mbar 0.84 m/s 183.83 Deg 63.37 µg/m3
2022-06-04 05:00 69.68 µg/m3 N/A N/A N/A 0 mg/m3 22.85 °C 50.24 % 1,014.34 mbar 0.92 m/s 190.8 Deg 45.43 µg/m3
2022-06-04 04:00 63.51 µg/m3 N/A N/A N/A 0 mg/m3 23.05 °C 49.29 % 1,014.14 mbar 1.21 m/s 196.88 Deg 13.8 µg/m3
2022-06-04 03:00 66.71 µg/m3 N/A N/A N/A 0 mg/m3 23.28 °C 51.32 % 1,014.44 mbar 0.87 m/s 184.31 Deg 8.56 µg/m3
2022-06-04 02:00 76.12 µg/m3 N/A N/A N/A 0 mg/m3 24.26 °C 45.4 % 1,014.80 mbar 0.87 m/s 180.58 Deg 26.73 µg/m3
2022-06-04 01:00 80.82 µg/m3 N/A N/A N/A 0 mg/m3 24.95 °C 45.57 % 1,014.98 mbar 0.96 m/s 178.83 Deg 15.58 µg/m3
2022-06-04 00:00 88.49 µg/m3 N/A N/A N/A 0 mg/m3 25.63 °C 44.09 % 1,015.32 mbar 0.38 m/s 200.22 Deg 22.59 µg/m3
2022-06-03 23:00 70.15 µg/m3 N/A N/A N/A 0 mg/m3 26.3 °C 40.53 % 1,015.54 mbar 0.5 m/s 201.61 Deg 11.85 µg/m3
2022-06-03 22:00 32.28 µg/m3 N/A N/A N/A 0 mg/m3 26.19 °C 44.23 % 1,015.49 mbar 0.35 m/s 81.87 Deg 0.5 µg/m3
2022-06-03 21:00 34.45 µg/m3 N/A N/A N/A 0 mg/m3 25.54 °C 60.74 % 1,015.36 mbar 0.6 m/s 302.01 Deg 2.79 µg/m3
2022-06-03 20:00 29.84 µg/m3 N/A N/A N/A 0 mg/m3 25.82 °C 58.82 % 1,014.96 mbar 0.76 m/s 347.2 Deg 2.25 µg/m3
2022-06-03 19:00 25.94 µg/m3 N/A N/A N/A 0 mg/m3 26.28 °C 67.32 % 1,015.05 mbar 0.71 m/s 315.73 Deg 2.21 µg/m3
2022-06-03 18:00 29.08 µg/m3 N/A N/A N/A 0 mg/m3 27.39 °C 58.05 % 1,014.89 mbar 1.24 m/s 330.08 Deg 5.35 µg/m3
2022-06-03 17:00 27.5 µg/m3 N/A N/A N/A 0 mg/m3 28.75 °C 45.96 % 1,014.84 mbar 1.08 m/s 196.48 Deg 4.59 µg/m3
2022-06-03 16:00 24.08 µg/m3 N/A N/A N/A 0 mg/m3 28.67 °C 47.26 % 1,015.11 mbar 0.93 m/s 321.14 Deg 4.4 µg/m3
2022-06-03 15:00 28.26 µg/m3 N/A N/A N/A 0 mg/m3 28.37 °C 49.78 % 1,015.38 mbar 0.78 m/s 183.41 Deg 8.49 µg/m3
2022-06-03 14:00 21.24 µg/m3 N/A N/A N/A 0 mg/m3 28 °C 49.63 % 1,015.63 mbar 0.79 m/s 99.66 Deg 3.97 µg/m3
2022-06-03 13:00 24.09 µg/m3 N/A N/A N/A 0 mg/m3 28.36 °C 40.64 % 1,015.70 mbar 1.08 m/s 242.66 Deg 3.7 µg/m3
2022-06-03 12:00 27.91 µg/m3 N/A N/A N/A 0 mg/m3 27.68 °C 43.17 % 1,015.85 mbar 1.01 m/s 159.94 Deg 5.73 µg/m3
2022-06-03 11:00 30.91 µg/m3 N/A N/A N/A 0 mg/m3 27.22 °C 47.57 % 1,015.80 mbar 0.83 m/s 234.84 Deg 4.55 µg/m3
2022-06-03 10:00 59.38 µg/m3 N/A N/A N/A 0 mg/m3 26.47 °C 50.91 % 1,015.45 mbar 1.12 m/s 156.6 Deg 18.87 µg/m3
2022-06-03 09:00 24.3 µg/m3 N/A N/A N/A 0 mg/m3 26.33 °C 51.12 % 1,015.06 mbar 0.78 m/s 91.08 Deg 4.23 µg/m3
2022-06-03 08:00 37.33 µg/m3 N/A N/A N/A 0 mg/m3 25.68 °C 48.33 % 1,014.90 mbar 0.67 m/s 32.91 Deg 17.75 µg/m3
2022-06-03 07:00 -2.39 µg/m3 N/A N/A N/A 0 mg/m3 23.68 °C 51.78 % 1,014.76 mbar 0.08 m/s 161.62 Deg 59.82 µg/m3

It is to be noted that the data is provisional and subject to quality assurance procedures. For validated data kindly refer your request to contact.air@era.org.mt